PWSweather.com
Personal Weather Stations
Station Observations
KM01CL
Kitemaniak 01, Castiglione Del LagoIT 06061

Kitemaniak 01Castiglione Del LagoIT 06061

Lat: 43.133808, Lon: 12.045753

Elevation: 997

Station Type: Ventus W831

High Low Average
Temperature 52.7°F11.5°C 32.7°F0.4°C 41.8°F5.4°C
Dew Point 48.4°F9.1°C 29.3°F-1.5°C 37.0°F2.8°C
Winds 19.0 mph 30.6 kmh Calm Calm 3.0 mph S4.8 kmh S
Wind Gusts 21.3 mph34.3 kmh -- 3.0 mph4.8 kmh
Humidity 92% 62% 83%
Pressure 29.70 in1005.8 mb 29.47 in998.0 mb -
Precipitation 0.07 in1.8 mm - -
Hour Temp Dew Point Humidity Winds Wind Gusts Pressure Precip Precip Rate Daily Precip Total
05:21 AM 41.7°F5.4°C 39.0°F3.9°C 90% 1.6 mph W2.6 kmh W 2.2 mph3.5 kmh 29.49 in998.6 mb 0.00 in0.0 mm 0.00 in0.0 mm 0.00 in0.0 mm
05:23 AM 41.7°F5.4°C 39.0°F3.9°C 90% 2.2 mph S3.5 kmh S 3.1 mph5.0 kmh 29.49 in998.6 mb 0.00 in0.0 mm 0.00 in0.0 mm 0.00 in0.0 mm
05:25 AM 41.7°F5.4°C 39.0°F3.9°C 90% 2.2 mph S3.5 kmh S 3.1 mph5.0 kmh 29.49 in998.6 mb 0.01 in0.3 mm 0.35 in8.9 mm 0.01 in0.3 mm
05:27 AM 41.7°F5.4°C 39.0°F3.9°C 90% 3.1 mph S5.0 kmh S 3.8 mph6.1 kmh 29.48 in998.3 mb 0.01 in0.3 mm 0.00 in0.0 mm 0.01 in0.3 mm
05:29 AM 41.7°F5.4°C 39.0°F3.9°C 90% 2.2 mph S3.5 kmh S 3.1 mph5.0 kmh 29.49 in998.6 mb 0.01 in0.3 mm 0.00 in0.0 mm 0.01 in0.3 mm
05:31 AM 41.9°F5.5°C 39.2°F4.0°C 90% 1.6 mph S2.6 kmh S 2.2 mph3.5 kmh 29.49 in998.6 mb 0.01 in0.3 mm 0.00 in0.0 mm 0.01 in0.3 mm
05:33 AM 41.9°F5.5°C 39.2°F4.0°C 90% 0.7 mph S1.1 kmh S 1.6 mph2.6 kmh 29.49 in998.6 mb 0.01 in0.3 mm 0.00 in0.0 mm 0.01 in0.3 mm
05:35 AM 41.9°F5.5°C 39.5°F4.2°C 91% 0.7 mph S1.1 kmh S 1.6 mph2.6 kmh 29.48 in998.3 mb 0.01 in0.3 mm 0.00 in0.0 mm 0.01 in0.3 mm
05:37 AM 41.9°F5.5°C 39.5°F4.2°C 91% 0.7 mph S1.1 kmh S 1.6 mph2.6 kmh 29.48 in998.3 mb 0.01 in0.3 mm 0.00 in0.0 mm 0.01 in0.3 mm
05:39 AM 41.9°F5.5°C 39.5°F4.2°C 91% 0.7 mph S1.1 kmh S 1.6 mph2.6 kmh 29.48 in998.3 mb 0.01 in0.3 mm 0.00 in0.0 mm 0.01 in0.3 mm
05:41 AM 42.1°F5.6°C 39.7°F4.3°C 91% Calm Calm 0.7 mph1.1 kmh 29.48 in998.3 mb 0.01 in0.3 mm 0.00 in0.0 mm 0.01 in0.3 mm
05:44 AM 42.1°F5.6°C 39.7°F4.3°C 91% Calm Calm -- 29.48 in998.3 mb 0.01 in0.3 mm 0.00 in0.0 mm 0.01 in0.3 mm
05:46 AM 42.1°F5.6°C 39.7°F4.3°C 91% Calm Calm -- 29.48 in998.3 mb 0.01 in0.3 mm 0.00 in0.0 mm 0.01 in0.3 mm
05:48 AM 42.1°F5.6°C 39.7°F4.3°C 91% Calm Calm -- 29.48 in998.3 mb 0.01 in0.3 mm 0.00 in0.0 mm 0.01 in0.3 mm
05:50 AM 42.3°F5.7°C 39.8°F4.3°C 91% Calm Calm -- 29.48 in998.3 mb 0.01 in0.3 mm 0.00 in0.0 mm 0.01 in0.3 mm
05:52 AM 42.3°F5.7°C 39.8°F4.3°C 91% Calm Calm -- 29.48 in998.3 mb 0.01 in0.3 mm 0.00 in0.0 mm 0.01 in0.3 mm
05:54 AM 42.3°F5.7°C 39.8°F4.3°C 91% Calm Calm -- 29.48 in998.3 mb 0.01 in0.3 mm 0.00 in0.0 mm 0.01 in0.3 mm
05:56 AM 42.3°F5.7°C 39.8°F4.3°C 91% Calm Calm -- 29.48 in998.3 mb 0.01 in0.3 mm 0.00 in0.0 mm 0.01 in0.3 mm
05:58 AM 42.4°F5.8°C 40.0°F4.4°C 91% Calm Calm -- 29.48 in998.3 mb 0.01 in0.3 mm 0.00 in0.0 mm 0.01 in0.3 mm
06:00 AM 42.4°F5.8°C 40.0°F4.4°C 91% Calm Calm -- 29.48 in998.3 mb 0.01 in0.3 mm 0.00 in0.0 mm 0.01 in0.3 mm
06:02 AM 42.4°F5.8°C 40.0°F4.4°C 91% Calm Calm -- 29.48 in998.3 mb 0.01 in0.3 mm 0.00 in0.0 mm 0.01 in0.3 mm
06:04 AM 42.4°F5.8°C 40.0°F4.4°C 91% Calm Calm -- 29.48 in998.3 mb 0.01 in0.3 mm 0.00 in0.0 mm 0.01 in0.3 mm
06:06 AM 42.4°F5.8°C 40.0°F4.4°C 91% Calm Calm -- 29.48 in998.3 mb 0.01 in0.3 mm 0.00 in0.0 mm 0.01 in0.3 mm
06:08 AM 42.3°F5.7°C 39.8°F4.3°C 91% Calm Calm -- 29.48 in998.3 mb 0.01 in0.3 mm 0.00 in0.0 mm 0.01 in0.3 mm
06:10 AM 42.3°F5.7°C 39.8°F4.3°C 91% 0.7 mph S1.1 kmh S 1.6 mph2.6 kmh 29.48 in998.3 mb 0.01 in0.3 mm 0.00 in0.0 mm 0.01 in0.3 mm
06:12 AM 42.3°F5.7°C 39.8°F4.3°C 91% 0.7 mph S1.1 kmh S 1.6 mph2.6 kmh 29.48 in998.3 mb 0.01 in0.3 mm 0.00 in0.0 mm 0.01 in0.3 mm
06:14 AM 42.1°F5.6°C 39.7°F4.3°C 91% 0.7 mph S1.1 kmh S 1.6 mph2.6 kmh 29.48 in998.3 mb 0.01 in0.3 mm 0.00 in0.0 mm 0.01 in0.3 mm
06:16 AM 42.1°F5.6°C 39.7°F4.3°C 91% 1.6 mph S2.6 kmh S 2.2 mph3.5 kmh 29.48 in998.3 mb 0.01 in0.3 mm 0.00 in0.0 mm 0.01 in0.3 mm
06:18 AM 42.1°F5.6°C 39.7°F4.3°C 91% 0.7 mph S1.1 kmh S 1.6 mph2.6 kmh 29.48 in998.3 mb 0.01 in0.3 mm 0.00 in0.0 mm 0.01 in0.3 mm
06:20 AM 42.1°F5.6°C 39.7°F4.3°C 91% 1.6 mph S2.6 kmh S 2.2 mph3.5 kmh 29.48 in998.3 mb 0.01 in0.3 mm 0.00 in0.0 mm 0.01 in0.3 mm
06:22 AM 42.1°F5.6°C 39.7°F4.3°C 91% 3.8 mph S6.1 kmh S 4.5 mph7.2 kmh 29.48 in998.3 mb 0.01 in0.3 mm 0.00 in0.0 mm 0.01 in0.3 mm
06:24 AM 42.1°F5.6°C 39.7°F4.3°C 91% 1.6 mph S2.6 kmh S 3.1 mph5.0 kmh 29.48 in998.3 mb 0.00 in0.0 mm 0.00 in0.0 mm 0.01 in0.3 mm
06:26 AM 42.1°F5.6°C 39.7°F4.3°C 91% 1.6 mph S2.6 kmh S 2.2 mph3.5 kmh 29.48 in998.3 mb 0.00 in0.0 mm 0.00 in0.0 mm 0.01 in0.3 mm
06:28 AM 41.9°F5.5°C 39.5°F4.2°C 91% 1.6 mph S2.6 kmh S 2.2 mph3.5 kmh 29.48 in998.3 mb 0.00 in0.0 mm 0.00 in0.0 mm 0.01 in0.3 mm
06:30 AM 41.9°F5.5°C 39.5°F4.2°C 91% 0.7 mph S1.1 kmh S 1.6 mph2.6 kmh 29.48 in998.3 mb 0.00 in0.0 mm 0.00 in0.0 mm 0.01 in0.3 mm
06:32 AM 41.9°F5.5°C 39.5°F4.2°C 91% Calm Calm 0.7 mph1.1 kmh 29.48 in998.3 mb 0.00 in0.0 mm 0.00 in0.0 mm 0.01 in0.3 mm
06:34 AM 42.1°F5.6°C 39.7°F4.3°C 91% 0.7 mph S1.1 kmh S 0.7 mph1.1 kmh 29.47 in998.0 mb 0.00 in0.0 mm 0.00 in0.0 mm 0.01 in0.3 mm
06:36 AM 42.1°F5.6°C 39.7°F4.3°C 91% 1.6 mph S2.6 kmh S 2.2 mph3.5 kmh 29.48 in998.3 mb 0.00 in0.0 mm 0.00 in0.0 mm 0.01 in0.3 mm
06:38 AM 42.1°F5.6°C 39.7°F4.3°C 91% 0.7 mph S1.1 kmh S 0.7 mph1.1 kmh 29.48 in998.3 mb 0.00 in0.0 mm 0.00 in0.0 mm 0.01 in0.3 mm
06:40 AM 42.1°F5.6°C 39.7°F4.3°C 91% 0.7 mph S1.1 kmh S 1.6 mph2.6 kmh 29.47 in998.0 mb 0.00 in0.0 mm 0.00 in0.0 mm 0.01 in0.3 mm
06:42 AM 42.1°F5.6°C 39.7°F4.3°C 91% 1.6 mph S2.6 kmh S 2.2 mph3.5 kmh 29.47 in998.0 mb 0.00 in0.0 mm 0.00 in0.0 mm 0.01 in0.3 mm
06:44 AM 42.1°F5.6°C 39.7°F4.3°C 91% 1.6 mph S2.6 kmh S 2.2 mph3.5 kmh 29.47 in998.0 mb 0.00 in0.0 mm 0.00 in0.0 mm 0.01 in0.3 mm
06:46 AM 42.1°F5.6°C 39.7°F4.3°C 91% 0.7 mph S1.1 kmh S 1.6 mph2.6 kmh 29.47 in998.0 mb 0.00 in0.0 mm 0.00 in0.0 mm 0.01 in0.3 mm
06:48 AM 42.1°F5.6°C 39.7°F4.3°C 91% 0.7 mph S1.1 kmh S 1.6 mph2.6 kmh 29.48 in998.3 mb 0.00 in0.0 mm 0.00 in0.0 mm 0.01 in0.3 mm
06:50 AM 42.1°F5.6°C 39.7°F4.3°C 91% 0.7 mph S1.1 kmh S 1.6 mph2.6 kmh 29.48 in998.3 mb 0.00 in0.0 mm 0.00 in0.0 mm 0.01 in0.3 mm
06:52 AM 42.1°F5.6°C 39.7°F4.3°C 91% 1.6 mph S2.6 kmh S 2.2 mph3.5 kmh 29.48 in998.3 mb 0.00 in0.0 mm 0.00 in0.0 mm 0.01 in0.3 mm
06:54 AM 42.1°F5.6°C 39.7°F4.3°C 91% 0.7 mph SSW1.1 kmh SSW 1.6 mph2.6 kmh 29.47 in998.0 mb 0.00 in0.0 mm 0.00 in0.0 mm 0.01 in0.3 mm
06:56 AM 42.1°F5.6°C 39.7°F4.3°C 91% 0.7 mph SSW1.1 kmh SSW 1.6 mph2.6 kmh 29.48 in998.3 mb 0.00 in0.0 mm 0.00 in0.0 mm 0.01 in0.3 mm
06:58 AM 42.1°F5.6°C 39.7°F4.3°C 91% 1.6 mph SSW2.6 kmh SSW 1.6 mph2.6 kmh 29.48 in998.3 mb 0.00 in0.0 mm 0.00 in0.0 mm 0.01 in0.3 mm
07:00 AM 42.1°F5.6°C 39.7°F4.3°C 91% 1.6 mph SSW2.6 kmh SSW 2.2 mph3.5 kmh 29.48 in998.3 mb 0.00 in0.0 mm 0.00 in0.0 mm 0.01 in0.3 mm
07:02 AM 42.1°F5.6°C 39.7°F4.3°C 91% 1.6 mph SSW2.6 kmh SSW 2.2 mph3.5 kmh 29.48 in998.3 mb 0.00 in0.0 mm 0.00 in0.0 mm 0.01 in0.3 mm
07:04 AM 42.1°F5.6°C 39.7°F4.3°C 91% 1.6 mph SSW2.6 kmh SSW 2.2 mph3.5 kmh 29.48 in998.3 mb 0.00 in0.0 mm 0.00 in0.0 mm 0.01 in0.3 mm
07:06 AM 41.9°F5.5°C 39.5°F4.2°C 91% 1.6 mph S2.6 kmh S 3.1 mph5.0 kmh 29.48 in998.3 mb 0.00 in0.0 mm 0.00 in0.0 mm 0.01 in0.3 mm
07:08 AM 41.9°F5.5°C 39.5°F4.2°C 91% 1.6 mph S2.6 kmh S 2.2 mph3.5 kmh 29.48 in998.3 mb 0.00 in0.0 mm 0.00 in0.0 mm 0.01 in0.3 mm
07:10 AM 41.9°F5.5°C 39.5°F4.2°C 91% 1.6 mph SSW2.6 kmh SSW 2.2 mph3.5 kmh 29.48 in998.3 mb 0.00 in0.0 mm 0.00 in0.0 mm 0.01 in0.3 mm
07:12 AM 41.9°F5.5°C 39.5°F4.2°C 91% 1.6 mph SSW2.6 kmh SSW 2.2 mph3.5 kmh 29.48 in998.3 mb 0.00 in0.0 mm 0.00 in0.0 mm 0.01 in0.3 mm
07:14 AM 41.9°F5.5°C 39.5°F4.2°C 91% 0.7 mph S1.1 kmh S 1.6 mph2.6 kmh 29.48 in998.3 mb 0.00 in0.0 mm 0.00 in0.0 mm 0.01 in0.3 mm
07:16 AM 41.9°F5.5°C 39.5°F4.2°C 91% 0.7 mph S1.1 kmh S 1.6 mph2.6 kmh 29.48 in998.3 mb 0.00 in0.0 mm 0.00 in0.0 mm 0.01 in0.3 mm
07:18 AM 41.9°F5.5°C 39.5°F4.2°C 91% Calm Calm 0.7 mph1.1 kmh 29.48 in998.3 mb 0.00 in0.0 mm 0.00 in0.0 mm 0.01 in0.3 mm
07:20 AM 41.9°F5.5°C 39.5°F4.2°C 91% Calm Calm -- 29.48 in998.3 mb 0.00 in0.0 mm 0.00 in0.0 mm 0.01 in0.3 mm
07:22 AM 41.9°F5.5°C 39.5°F4.2°C 91% Calm Calm -- 29.48 in998.3 mb 0.00 in0.0 mm 0.00 in0.0 mm 0.01 in0.3 mm
07:24 AM 41.9°F5.5°C 39.5°F4.2°C 91% Calm Calm -- 29.48 in998.3 mb 0.00 in0.0 mm 0.00 in0.0 mm 0.01 in0.3 mm
07:26 AM 41.9°F5.5°C 39.5°F4.2°C 91% Calm Calm -- 29.48 in998.3 mb 0.00 in0.0 mm 0.00 in0.0 mm 0.01 in0.3 mm
07:28 AM 41.9°F5.5°C 39.5°F4.2°C 91% Calm Calm 0.7 mph1.1 kmh 29.48 in998.3 mb 0.00 in0.0 mm 0.00 in0.0 mm 0.01 in0.3 mm
07:30 AM 41.7°F5.4°C 39.3°F4.1°C 91% Calm Calm 0.7 mph1.1 kmh 29.48 in998.3 mb 0.00 in0.0 mm 0.00 in0.0 mm 0.01 in0.3 mm
07:32 AM 41.7°F5.4°C 39.3°F4.1°C 91% 0.7 mph S1.1 kmh S 1.6 mph2.6 kmh 29.48 in998.3 mb 0.00 in0.0 mm 0.00 in0.0 mm 0.01 in0.3 mm
07:34 AM 41.7°F5.4°C 39.3°F4.1°C 91% 0.7 mph S1.1 kmh S 1.6 mph2.6 kmh 29.48 in998.3 mb 0.00 in0.0 mm 0.00 in0.0 mm 0.01 in0.3 mm
07:36 AM 41.7°F5.4°C 39.3°F4.1°C 91% Calm Calm 0.7 mph1.1 kmh 29.48 in998.3 mb 0.00 in0.0 mm 0.00 in0.0 mm 0.01 in0.3 mm
07:38 AM 41.7°F5.4°C 39.3°F4.1°C 91% Calm Calm -- 29.48 in998.3 mb 0.00 in0.0 mm 0.00 in0.0 mm 0.01 in0.3 mm
07:40 AM 41.7°F5.4°C 39.3°F4.1°C 91% Calm Calm -- 29.48 in998.3 mb 0.00 in0.0 mm 0.00 in0.0 mm 0.01 in0.3 mm
07:42 AM 41.7°F5.4°C 39.3°F4.1°C 91% 1.6 mph NW2.6 kmh NW 2.2 mph3.5 kmh 29.48 in998.3 mb 0.00 in0.0 mm 0.00 in0.0 mm 0.01 in0.3 mm
07:44 AM 41.5°F5.3°C 39.1°F3.9°C 91% 1.6 mph NW2.6 kmh NW 2.2 mph3.5 kmh 29.48 in998.3 mb 0.00 in0.0 mm 0.00 in0.0 mm 0.01 in0.3 mm
07:46 AM 41.5°F5.3°C 39.1°F3.9°C 91% 1.6 mph NW2.6 kmh NW 2.2 mph3.5 kmh 29.48 in998.3 mb 0.00 in0.0 mm 0.00 in0.0 mm 0.01 in0.3 mm
07:48 AM 41.4°F5.2°C 38.9°F3.8°C 91% 1.6 mph NW2.6 kmh NW 2.2 mph3.5 kmh 29.48 in998.3 mb 0.00 in0.0 mm 0.00 in0.0 mm 0.01 in0.3 mm
07:50 AM 41.4°F5.2°C 38.9°F3.8°C 91% 1.6 mph NW2.6 kmh NW 2.2 mph3.5 kmh 29.48 in998.3 mb 0.00 in0.0 mm 0.00 in0.0 mm 0.01 in0.3 mm
07:52 AM 41.2°F5.1°C 38.8°F3.8°C 91% 1.6 mph NW2.6 kmh NW 2.2 mph3.5 kmh 29.49 in998.6 mb 0.00 in0.0 mm 0.00 in0.0 mm 0.01 in0.3 mm
07:54 AM 41.2°F5.1°C 38.8°F3.8°C 91% Calm Calm 0.7 mph1.1 kmh 29.49 in998.6 mb 0.00 in0.0 mm 0.00 in0.0 mm 0.01 in0.3 mm
07:56 AM 41.2°F5.1°C 38.8°F3.8°C 91% 1.6 mph NW2.6 kmh NW 1.6 mph2.6 kmh 29.49 in998.6 mb 0.00 in0.0 mm 0.00 in0.0 mm 0.01 in0.3 mm
07:58 AM 41.2°F5.1°C 38.8°F3.8°C 91% 0.7 mph NW1.1 kmh NW 1.6 mph2.6 kmh 29.49 in998.6 mb 0.00 in0.0 mm 0.00 in0.0 mm 0.01 in0.3 mm
08:00 AM 41.2°F5.1°C 38.8°F3.8°C 91% 0.7 mph NW1.1 kmh NW 1.6 mph2.6 kmh 29.48 in998.3 mb 0.00 in0.0 mm 0.00 in0.0 mm 0.01 in0.3 mm
08:02 AM 41.2°F5.1°C 38.8°F3.8°C 91% 0.7 mph NW1.1 kmh NW 1.6 mph2.6 kmh 29.49 in998.6 mb 0.00 in0.0 mm 0.00 in0.0 mm 0.01 in0.3 mm
08:04 AM 41.2°F5.1°C 38.8°F3.8°C 91% 0.7 mph NW1.1 kmh NW 1.6 mph2.6 kmh 29.49 in998.6 mb 0.00 in0.0 mm 0.00 in0.0 mm 0.01 in0.3 mm
08:06 AM 40.8°F4.9°C 38.4°F3.6°C 91% Calm Calm -- 29.50 in999.0 mb 0.00 in0.0 mm 0.00 in0.0 mm 0.01 in0.3 mm
08:08 AM 40.8°F4.9°C 38.4°F3.6°C 91% Calm Calm -- 29.49 in998.6 mb 0.00 in0.0 mm 0.00 in0.0 mm 0.01 in0.3 mm
08:10 AM 40.6°F4.8°C 38.2°F3.4°C 91% Calm Calm -- 29.49 in998.6 mb 0.00 in0.0 mm 0.00 in0.0 mm 0.01 in0.3 mm
08:12 AM 40.6°F4.8°C 37.9°F3.3°C 90% Calm Calm -- 29.49 in998.6 mb 0.00 in0.0 mm 0.00 in0.0 mm 0.01 in0.3 mm
08:14 AM 40.6°F4.8°C 37.9°F3.3°C 90% 0.7 mph NW1.1 kmh NW 1.6 mph2.6 kmh 29.50 in999.0 mb 0.00 in0.0 mm 0.00 in0.0 mm 0.01 in0.3 mm
08:16 AM 40.5°F4.7°C 37.8°F3.2°C 90% 0.7 mph NW1.1 kmh NW 1.6 mph2.6 kmh 29.50 in999.0 mb 0.00 in0.0 mm 0.00 in0.0 mm 0.01 in0.3 mm
08:18 AM 40.5°F4.7°C 37.8°F3.2°C 90% 2.2 mph NW3.5 kmh NW 3.1 mph5.0 kmh 29.49 in998.6 mb 0.00 in0.0 mm 0.00 in0.0 mm 0.01 in0.3 mm
08:20 AM 40.5°F4.7°C 37.8°F3.2°C 90% 3.1 mph NW5.0 kmh NW 3.8 mph6.1 kmh 29.50 in999.0 mb 0.00 in0.0 mm 0.00 in0.0 mm 0.01 in0.3 mm
08:22 AM 40.5°F4.7°C 37.8°F3.2°C 90% 1.6 mph NW2.6 kmh NW 2.2 mph3.5 kmh 29.50 in999.0 mb 0.00 in0.0 mm 0.00 in0.0 mm 0.01 in0.3 mm
08:24 AM 40.5°F4.7°C 37.8°F3.2°C 90% 0.7 mph NW1.1 kmh NW 2.2 mph3.5 kmh 29.50 in999.0 mb 0.00 in0.0 mm 0.00 in0.0 mm 0.01 in0.3 mm
08:26 AM 40.5°F4.7°C 37.8°F3.2°C 90% 0.7 mph NW1.1 kmh NW 1.6 mph2.6 kmh 29.50 in999.0 mb 0.00 in0.0 mm 0.00 in0.0 mm 0.01 in0.3 mm
08:28 AM 40.6°F4.8°C 37.9°F3.3°C 90% Calm Calm 0.7 mph1.1 kmh 29.50 in999.0 mb 0.00 in0.0 mm 0.00 in0.0 mm 0.01 in0.3 mm
08:30 AM 40.6°F4.8°C 38.2°F3.4°C 91% Calm Calm -- 29.50 in999.0 mb 0.00 in0.0 mm 0.00 in0.0 mm 0.01 in0.3 mm
08:32 AM 41.0°F5.0°C 38.6°F3.7°C 91% Calm Calm -- 29.51 in999.3 mb 0.00 in0.0 mm 0.00 in0.0 mm 0.01 in0.3 mm
08:34 AM 41.4°F5.2°C 38.9°F3.8°C 91% Calm Calm 0.7 mph1.1 kmh 29.50 in999.0 mb 0.00 in0.0 mm 0.00 in0.0 mm 0.01 in0.3 mm
08:36 AM 41.5°F5.3°C 39.1°F3.9°C 91% 0.7 mph W1.1 kmh W 1.6 mph2.6 kmh 29.50 in999.0 mb 0.00 in0.0 mm 0.00 in0.0 mm 0.01 in0.3 mm
08:38 AM 41.7°F5.4°C 39.3°F4.1°C 91% Calm Calm 1.6 mph2.6 kmh 29.50 in999.0 mb 0.00 in0.0 mm 0.00 in0.0 mm 0.01 in0.3 mm
08:40 AM 41.9°F5.5°C 39.5°F4.2°C 91% 0.7 mph W1.1 kmh W 1.6 mph2.6 kmh 29.50 in999.0 mb 0.00 in0.0 mm 0.00 in0.0 mm 0.01 in0.3 mm
08:42 AM 41.7°F5.4°C 39.3°F4.1°C 91% Calm Calm -- 29.50 in999.0 mb 0.00 in0.0 mm 0.00 in0.0 mm 0.01 in0.3 mm
08:44 AM 41.7°F5.4°C 39.3°F4.1°C 91% Calm Calm -- 29.50 in999.0 mb 0.00 in0.0 mm 0.00 in0.0 mm 0.01 in0.3 mm
08:46 AM 41.7°F5.4°C 39.3°F4.1°C 91% Calm Calm -- 29.50 in999.0 mb 0.00 in0.0 mm 0.00 in0.0 mm 0.01 in0.3 mm
08:48 AM 41.5°F5.3°C 39.1°F3.9°C 91% Calm Calm -- 29.50 in999.0 mb 0.00 in0.0 mm 0.00 in0.0 mm 0.01 in0.3 mm
08:50 AM 41.7°F5.4°C 39.3°F4.1°C 91% 0.7 mph W1.1 kmh W 1.6 mph2.6 kmh 29.50 in999.0 mb 0.00 in0.0 mm 0.00 in0.0 mm 0.01 in0.3 mm
08:52 AM 41.7°F5.4°C 39.3°F4.1°C 91% 1.6 mph W2.6 kmh W 2.2 mph3.5 kmh 29.50 in999.0 mb 0.00 in0.0 mm 0.00 in0.0 mm 0.01 in0.3 mm
08:54 AM 41.9°F5.5°C 39.5°F4.2°C 91% 0.7 mph W1.1 kmh W 1.6 mph2.6 kmh 29.50 in999.0 mb 0.00 in0.0 mm 0.00 in0.0 mm 0.01 in0.3 mm
08:56 AM 42.1°F5.6°C 39.7°F4.3°C 91% 0.7 mph W1.1 kmh W 1.6 mph2.6 kmh 29.50 in999.0 mb 0.00 in0.0 mm 0.00 in0.0 mm 0.01 in0.3 mm
08:58 AM 42.3°F5.7°C 39.8°F4.3°C 91% 0.7 mph W1.1 kmh W 1.6 mph2.6 kmh 29.50 in999.0 mb 0.00 in0.0 mm 0.00 in0.0 mm 0.01 in0.3 mm
09:00 AM 42.4°F5.8°C 40.0°F4.4°C 91% 0.7 mph W1.1 kmh W 1.6 mph2.6 kmh 29.50 in999.0 mb 0.00 in0.0 mm 0.00 in0.0 mm 0.01 in0.3 mm
09:02 AM 42.8°F6.0°C 40.4°F4.7°C 91% 0.7 mph W1.1 kmh W 1.6 mph2.6 kmh 29.50 in999.0 mb 0.00 in0.0 mm 0.00 in0.0 mm 0.01 in0.3 mm
09:04 AM 43.2°F6.2°C 41.0°F5.0°C 92% 0.7 mph W1.1 kmh W 1.6 mph2.6 kmh 29.50 in999.0 mb 0.00 in0.0 mm 0.00 in0.0 mm 0.01 in0.3 mm
09:06 AM 43.5°F6.4°C 41.4°F5.2°C 92% 0.7 mph W1.1 kmh W 1.6 mph2.6 kmh 29.50 in999.0 mb 0.00 in0.0 mm 0.00 in0.0 mm 0.01 in0.3 mm
09:08 AM 43.7°F6.5°C 41.5°F5.3°C 92% Calm Calm 0.7 mph1.1 kmh 29.50 in999.0 mb 0.00 in0.0 mm 0.00 in0.0 mm 0.01 in0.3 mm
09:10 AM 44.1°F6.7°C 41.9°F5.5°C 92% 0.7 mph W1.1 kmh W 1.6 mph2.6 kmh 29.50 in999.0 mb 0.00 in0.0 mm 0.00 in0.0 mm 0.01 in0.3 mm
09:12 AM 44.2°F6.8°C 42.1°F5.6°C 92% Calm Calm 0.7 mph1.1 kmh 29.50 in999.0 mb 0.00 in0.0 mm 0.00 in0.0 mm 0.01 in0.3 mm
09:14 AM 44.6°F7.0°C 42.4°F5.8°C 92% Calm Calm 0.7 mph1.1 kmh 29.50 in999.0 mb 0.00 in0.0 mm 0.00 in0.0 mm 0.01 in0.3 mm
09:16 AM 45.0°F7.2°C 42.8°F6.0°C 92% 0.7 mph WSW1.1 kmh WSW 1.6 mph2.6 kmh 29.50 in999.0 mb 0.00 in0.0 mm 0.00 in0.0 mm 0.01 in0.3 mm
09:18 AM 45.7°F7.6°C 42.6°F5.9°C 89% 1.6 mph WSW2.6 kmh WSW 1.6 mph2.6 kmh 29.50 in999.0 mb 0.00 in0.0 mm 0.00 in0.0 mm 0.01 in0.3 mm
09:20 AM 46.0°F7.8°C 43.0°F6.1°C 89% 0.7 mph WSW1.1 kmh WSW 1.6 mph2.6 kmh 29.50 in999.0 mb 0.00 in0.0 mm 0.00 in0.0 mm 0.01 in0.3 mm
09:23 AM 46.8°F8.2°C 44.0°F6.7°C 90% Calm Calm 0.7 mph1.1 kmh 29.50 in999.0 mb 0.00 in0.0 mm 0.00 in0.0 mm 0.01 in0.3 mm
09:25 AM 47.3°F8.5°C 44.5°F6.9°C 90% 2.2 mph E3.5 kmh E 3.1 mph5.0 kmh 29.50 in999.0 mb 0.00 in0.0 mm 0.00 in0.0 mm 0.01 in0.3 mm
09:27 AM 47.7°F8.7°C 44.9°F7.2°C 90% 5.4 mph NE8.7 kmh NE 6.0 mph9.7 kmh 29.50 in999.0 mb 0.00 in0.0 mm 0.00 in0.0 mm 0.01 in0.3 mm
09:29 AM 47.7°F8.7°C 45.2°F7.3°C 91% 6.0 mph E9.7 kmh E 6.9 mph11.1 kmh 29.50 in999.0 mb 0.00 in0.0 mm 0.00 in0.0 mm 0.01 in0.3 mm
09:31 AM 47.7°F8.7°C 45.2°F7.3°C 91% 4.5 mph E7.2 kmh E 6.0 mph9.7 kmh 29.50 in999.0 mb 0.00 in0.0 mm 0.00 in0.0 mm 0.01 in0.3 mm
09:33 AM 47.7°F8.7°C 44.9°F7.2°C 90% 6.0 mph E9.7 kmh E 6.9 mph11.1 kmh 29.50 in999.0 mb 0.00 in0.0 mm 0.00 in0.0 mm 0.01 in0.3 mm
09:35 AM 47.8°F8.8°C 45.1°F7.3°C 90% 4.5 mph E7.2 kmh E 5.4 mph8.7 kmh 29.50 in999.0 mb 0.00 in0.0 mm 0.00 in0.0 mm 0.01 in0.3 mm
09:37 AM 48.0°F8.9°C 45.2°F7.3°C 90% 3.8 mph E6.1 kmh E 4.5 mph7.2 kmh 29.50 in999.0 mb 0.00 in0.0 mm 0.00 in0.0 mm 0.01 in0.3 mm
09:39 AM 48.6°F9.2°C 45.8°F7.7°C 90% 3.1 mph E5.0 kmh E 3.8 mph6.1 kmh 29.50 in999.0 mb 0.00 in0.0 mm 0.00 in0.0 mm 0.01 in0.3 mm
09:41 AM 49.1°F9.5°C 46.6°F8.1°C 91% 3.1 mph E5.0 kmh E 3.8 mph6.1 kmh 29.50 in999.0 mb 0.00 in0.0 mm 0.00 in0.0 mm 0.01 in0.3 mm
09:43 AM 49.8°F9.9°C 47.3°F8.5°C 91% 1.6 mph E2.6 kmh E 2.2 mph3.5 kmh 29.50 in999.0 mb 0.00 in0.0 mm 0.00 in0.0 mm 0.01 in0.3 mm
09:45 AM 50.4°F10.2°C 47.8°F8.8°C 91% Calm Calm 0.7 mph1.1 kmh 29.51 in999.3 mb 0.00 in0.0 mm 0.00 in0.0 mm 0.01 in0.3 mm
09:47 AM 50.9°F10.5°C 48.4°F9.1°C 91% Calm Calm -- 29.50 in999.0 mb 0.00 in0.0 mm 0.00 in0.0 mm 0.01 in0.3 mm
09:49 AM 50.9°F10.5°C 48.4°F9.1°C 91% Calm Calm -- 29.50 in999.0 mb 0.00 in0.0 mm 0.00 in0.0 mm 0.01 in0.3 mm
09:51 AM 50.5°F10.3°C 48.0°F8.9°C 91% Calm Calm 0.7 mph1.1 kmh 29.49 in998.6 mb 0.00 in0.0 mm 0.00 in0.0 mm 0.01 in0.3 mm
09:53 AM 50.5°F10.3°C 47.7°F8.7°C 90% Calm Calm 0.7 mph1.1 kmh 29.50 in999.0 mb 0.00 in0.0 mm 0.00 in0.0 mm 0.01 in0.3 mm
09:55 AM 50.5°F10.3°C 47.7°F8.7°C 90% 0.7 mph NE1.1 kmh NE 1.6 mph2.6 kmh 29.50 in999.0 mb 0.00 in0.0 mm 0.00 in0.0 mm 0.01 in0.3 mm
09:57 AM 50.9°F10.5°C 47.8°F8.8°C 89% 2.2 mph SSE3.5 kmh SSE 3.1 mph5.0 kmh 29.49 in998.6 mb 0.00 in0.0 mm 0.00 in0.0 mm 0.01 in0.3 mm
09:59 AM 51.3°F10.7°C 47.5°F8.6°C 87% 3.1 mph SW5.0 kmh SW 3.1 mph5.0 kmh 29.50 in999.0 mb 0.00 in0.0 mm 0.00 in0.0 mm 0.01 in0.3 mm
10:01 AM 51.3°F10.7°C 47.5°F8.6°C 87% 3.1 mph SW5.0 kmh SW 3.1 mph5.0 kmh 29.50 in999.0 mb 0.00 in0.0 mm 0.00 in0.0 mm 0.01 in0.3 mm
10:03 AM 51.3°F10.7°C 47.5°F8.6°C 87% 3.1 mph SW5.0 kmh SW 3.1 mph5.0 kmh 29.50 in999.0 mb 0.00 in0.0 mm 0.00 in0.0 mm 0.01 in0.3 mm
10:05 AM 51.3°F10.7°C 47.5°F8.6°C 87% 3.1 mph SW5.0 kmh SW 3.1 mph5.0 kmh 29.50 in999.0 mb 0.00 in0.0 mm 0.00 in0.0 mm 0.01 in0.3 mm
10:07 AM 52.7°F11.5°C 46.7°F8.2°C 80% 5.4 mph NW8.7 kmh NW 6.0 mph9.7 kmh 29.50 in999.0 mb 0.00 in0.0 mm 0.00 in0.0 mm 0.01 in0.3 mm
10:09 AM 52.2°F11.2°C 43.8°F6.6°C 73% 3.1 mph W5.0 kmh W 4.5 mph7.2 kmh 29.50 in999.0 mb 0.00 in0.0 mm 0.00 in0.0 mm 0.01 in0.3 mm
10:11 AM 51.8°F11.0°C 42.3°F5.7°C 70% 3.1 mph NW5.0 kmh NW 4.5 mph7.2 kmh 29.50 in999.0 mb 0.00 in0.0 mm 0.00 in0.0 mm 0.01 in0.3 mm
10:13 AM 51.3°F10.7°C 40.7°F4.8°C 67% 3.1 mph W5.0 kmh W 3.8 mph6.1 kmh 29.50 in999.0 mb 0.00 in0.0 mm 0.00 in0.0 mm 0.01 in0.3 mm
10:15 AM 50.7°F10.4°C 39.8°F4.3°C 66% 4.5 mph NW7.2 kmh NW 5.4 mph8.7 kmh 29.50 in999.0 mb 0.00 in0.0 mm 0.00 in0.0 mm 0.01 in0.3 mm
10:17 AM 50.0°F10.0°C 38.3°F3.5°C 64% 2.2 mph W3.5 kmh W 4.5 mph7.2 kmh 29.50 in999.0 mb 0.00 in0.0 mm 0.00 in0.0 mm 0.01 in0.3 mm
10:19 AM 48.2°F9.0°C 36.6°F2.6°C 64% 7.6 mph 12.2 kmh 9.2 mph14.8 kmh 29.50 in999.0 mb 0.00 in0.0 mm 0.00 in0.0 mm 0.01 in0.3 mm
10:21 AM 47.3°F8.5°C 36.1°F2.3°C 65% 8.3 mph NE13.4 kmh NE 9.2 mph14.8 kmh 29.50 in999.0 mb 0.00 in0.0 mm 0.00 in0.0 mm 0.01 in0.3 mm
10:23 AM 46.8°F8.2°C 36.4°F2.4°C 67% 6.9 mph E11.1 kmh E 7.6 mph12.2 kmh 29.51 in999.3 mb 0.00 in0.0 mm 0.00 in0.0 mm 0.01 in0.3 mm
10:25 AM 46.6°F8.1°C 37.0°F2.8°C 69% 7.6 mph NE12.2 kmh NE 8.3 mph13.4 kmh 29.51 in999.3 mb 0.00 in0.0 mm 0.00 in0.0 mm 0.01 in0.3 mm
10:27 AM 46.2°F7.9°C 37.0°F2.8°C 70% 7.6 mph NNE12.2 kmh NNE 8.3 mph13.4 kmh 29.50 in999.0 mb 0.00 in0.0 mm 0.00 in0.0 mm 0.01 in0.3 mm
10:29 AM 45.9°F7.7°C 36.6°F2.6°C 70% 6.9 mph NE11.1 kmh NE 7.6 mph12.2 kmh 29.51 in999.3 mb 0.00 in0.0 mm 0.00 in0.0 mm 0.01 in0.3 mm
10:31 AM 45.5°F7.5°C 36.3°F2.4°C 70% 6.0 mph NE9.7 kmh NE 6.9 mph11.1 kmh 29.51 in999.3 mb 0.00 in0.0 mm 0.00 in0.0 mm 0.01 in0.3 mm
10:33 AM 45.5°F7.5°C 36.3°F2.4°C 70% 6.9 mph 11.1 kmh 7.6 mph12.2 kmh 29.52 in999.7 mb 0.00 in0.0 mm 0.00 in0.0 mm 0.01 in0.3 mm
10:35 AM 45.1°F7.3°C 37.4°F3.0°C 74% 6.0 mph W9.7 kmh W 7.6 mph12.2 kmh 29.51 in999.3 mb 0.00 in0.0 mm 0.00 in0.0 mm 0.01 in0.3 mm
10:37 AM 45.3°F7.4°C 37.9°F3.3°C 75% 4.5 mph W7.2 kmh W 6.0 mph9.7 kmh 29.52 in999.7 mb 0.00 in0.0 mm 0.00 in0.0 mm 0.01 in0.3 mm
10:39 AM 45.5°F7.5°C 36.7°F2.6°C 71% 4.5 mph W7.2 kmh W 6.0 mph9.7 kmh 29.51 in999.3 mb 0.00 in0.0 mm 0.00 in0.0 mm 0.01 in0.3 mm
10:41 AM 45.9°F7.7°C 37.0°F2.8°C 71% 3.1 mph W5.0 kmh W 4.5 mph7.2 kmh 29.51 in999.3 mb 0.00 in0.0 mm 0.00 in0.0 mm 0.01 in0.3 mm
10:43 AM 46.2°F7.9°C 37.0°F2.8°C 70% 2.2 mph WSW3.5 kmh WSW 3.1 mph5.0 kmh 29.51 in999.3 mb 0.00 in0.0 mm 0.00 in0.0 mm 0.01 in0.3 mm
10:45 AM 46.4°F8.0°C 37.2°F2.9°C 70% 2.2 mph NW3.5 kmh NW 3.8 mph6.1 kmh 29.51 in999.3 mb 0.00 in0.0 mm 0.00 in0.0 mm 0.01 in0.3 mm
10:47 AM 46.6°F8.1°C 37.3°F2.9°C 70% 3.8 mph NW6.1 kmh NW 5.4 mph8.7 kmh 29.51 in999.3 mb 0.00 in0.0 mm 0.00 in0.0 mm 0.01 in0.3 mm
10:49 AM 46.6°F8.1°C 37.0°F2.8°C 69% 0.7 mph NW1.1 kmh NW 2.2 mph3.5 kmh 29.51 in999.3 mb 0.00 in0.0 mm 0.00 in0.0 mm 0.01 in0.3 mm
10:51 AM 46.9°F8.3°C 37.7°F3.2°C 70% Calm Calm 0.7 mph1.1 kmh 29.51 in999.3 mb 0.00 in0.0 mm 0.00 in0.0 mm 0.01 in0.3 mm
10:53 AM 47.3°F8.5°C 38.0°F3.3°C 70% Calm Calm 0.7 mph1.1 kmh 29.51 in999.3 mb 0.00 in0.0 mm 0.00 in0.0 mm 0.01 in0.3 mm
10:55 AM 47.8°F8.8°C 38.9°F3.8°C 71% 1.6 mph W2.6 kmh W 2.2 mph3.5 kmh 29.51 in999.3 mb 0.00 in0.0 mm 0.00 in0.0 mm 0.01 in0.3 mm
10:57 AM 48.4°F9.1°C 39.4°F4.1°C 71% 1.6 mph W2.6 kmh W 2.2 mph3.5 kmh 29.51 in999.3 mb 0.00 in0.0 mm 0.00 in0.0 mm 0.01 in0.3 mm
10:59 AM 49.3°F9.6°C 40.6°F4.8°C 72% 0.7 mph W1.1 kmh W 1.6 mph2.6 kmh 29.50 in999.0 mb 0.00 in0.0 mm 0.00 in0.0 mm 0.01 in0.3 mm
11:01 AM 50.2°F10.1°C 41.9°F5.5°C 73% Calm Calm 0.7 mph1.1 kmh 29.51 in999.3 mb 0.00 in0.0 mm 0.00 in0.0 mm 0.01 in0.3 mm
11:03 AM 50.9°F10.5°C 42.2°F5.7°C 72% 0.7 mph W1.1 kmh W 2.2 mph3.5 kmh 29.51 in999.3 mb 0.00 in0.0 mm 0.00 in0.0 mm 0.01 in0.3 mm
11:05 AM 51.1°F10.6°C 41.6°F5.3°C 70% 0.7 mph W1.1 kmh W 2.2 mph3.5 kmh 29.51 in999.3 mb 0.00 in0.0 mm 0.00 in0.0 mm 0.01 in0.3 mm
11:07 AM 50.7°F10.4°C 39.0°F3.9°C 64% 6.0 mph NW9.7 kmh NW 7.6 mph12.2 kmh 29.50 in999.0 mb 0.00 in0.0 mm 0.00 in0.0 mm 0.01 in0.3 mm
11:09 AM 49.5°F9.7°C 37.0°F2.8°C 62% 7.6 mph NW12.2 kmh NW 8.3 mph13.4 kmh 29.50 in999.0 mb 0.00 in0.0 mm 0.00 in0.0 mm 0.01 in0.3 mm
11:11 AM 47.7°F8.7°C 35.7°F2.1°C 63% 5.4 mph NW8.7 kmh NW 6.0 mph9.7 kmh 29.51 in999.3 mb 0.00 in0.0 mm 0.00 in0.0 mm 0.01 in0.3 mm
11:13 AM 46.9°F8.3°C 35.8°F2.1°C 65% 6.9 mph NW11.1 kmh NW 7.6 mph12.2 kmh 29.51 in999.3 mb 0.00 in0.0 mm 0.00 in0.0 mm 0.01 in0.3 mm
11:15 AM 46.2°F7.9°C 36.3°F2.4°C 68% 5.4 mph NW8.7 kmh NW 6.0 mph9.7 kmh 29.51 in999.3 mb 0.00 in0.0 mm 0.00 in0.0 mm 0.01 in0.3 mm
11:17 AM 46.0°F7.8°C 36.8°F2.7°C 70% 3.8 mph NW6.1 kmh NW 4.5 mph7.2 kmh 29.51 in999.3 mb 0.00 in0.0 mm 0.00 in0.0 mm 0.01 in0.3 mm
11:19 AM 45.9°F7.7°C 36.6°F2.6°C 70% 3.8 mph NW6.1 kmh NW 4.5 mph7.2 kmh 29.50 in999.0 mb 0.00 in0.0 mm 0.00 in0.0 mm 0.01 in0.3 mm
11:21 AM 45.9°F7.7°C 37.0°F2.8°C 71% 3.1 mph NW5.0 kmh NW 3.8 mph6.1 kmh 29.50 in999.0 mb 0.00 in0.0 mm 0.00 in0.0 mm 0.01 in0.3 mm
11:23 AM 45.7°F7.6°C 36.8°F2.7°C 71% 5.4 mph NW8.7 kmh NW 6.0 mph9.7 kmh 29.50 in999.0 mb 0.00 in0.0 mm 0.00 in0.0 mm 0.01 in0.3 mm
11:25 AM 45.7°F7.6°C 36.8°F2.7°C 71% 4.5 mph NW7.2 kmh NW 5.4 mph8.7 kmh 29.50 in999.0 mb 0.00 in0.0 mm 0.00 in0.0 mm 0.01 in0.3 mm
11:27 AM 45.3°F7.4°C 38.5°F3.6°C 77% 5.4 mph 8.7 kmh 6.0 mph9.7 kmh 29.51 in999.3 mb 0.00 in0.0 mm 0.00 in0.0 mm 0.01 in0.3 mm
11:29 AM 45.1°F7.3°C 38.4°F3.6°C 77% 5.4 mph 8.7 kmh 6.0 mph9.7 kmh 29.50 in999.0 mb 0.00 in0.0 mm 0.00 in0.0 mm 0.01 in0.3 mm
11:31 AM 45.1°F7.3°C 38.4°F3.6°C 77% 7.6 mph 12.2 kmh 8.3 mph13.4 kmh 29.51 in999.3 mb 0.00 in0.0 mm 0.00 in0.0 mm 0.01 in0.3 mm
11:33 AM 45.0°F7.2°C 38.2°F3.4°C 77% 6.0 mph 9.7 kmh 6.9 mph11.1 kmh 29.51 in999.3 mb 0.00 in0.0 mm 0.00 in0.0 mm 0.01 in0.3 mm
11:35 AM 45.0°F7.2°C 38.2°F3.4°C 77% 6.0 mph NNE9.7 kmh NNE 6.9 mph11.1 kmh 29.50 in999.0 mb 0.00 in0.0 mm 0.00 in0.0 mm 0.01 in0.3 mm
11:37 AM 45.0°F7.2°C 38.5°F3.6°C 78% 4.5 mph NE7.2 kmh NE 5.4 mph8.7 kmh 29.51 in999.3 mb 0.00 in0.0 mm 0.00 in0.0 mm 0.01 in0.3 mm
11:39 AM 45.1°F7.3°C 38.7°F3.7°C 78% 3.8 mph NE6.1 kmh NE 5.4 mph8.7 kmh 29.51 in999.3 mb 0.00 in0.0 mm 0.00 in0.0 mm 0.01 in0.3 mm
11:41 AM 45.3°F7.4°C 39.2°F4.0°C 79% 1.6 mph NE2.6 kmh NE 2.2 mph3.5 kmh 29.50 in999.0 mb 0.00 in0.0 mm 0.00 in0.0 mm 0.01 in0.3 mm
11:43 AM 45.5°F7.5°C 37.4°F3.0°C 73% 3.8 mph E6.1 kmh E 4.5 mph7.2 kmh 29.51 in999.3 mb 0.00 in0.0 mm 0.00 in0.0 mm 0.01 in0.3 mm
11:45 AM 45.5°F7.5°C 37.4°F3.0°C 73% 6.0 mph E9.7 kmh E 6.9 mph11.1 kmh 29.50 in999.0 mb 0.00 in0.0 mm 0.00 in0.0 mm 0.01 in0.3 mm
11:47 AM 45.9°F7.7°C 37.7°F3.2°C 73% 7.6 mph E12.2 kmh E 8.3 mph13.4 kmh 29.50 in999.0 mb 0.00 in0.0 mm 0.00 in0.0 mm 0.01 in0.3 mm
11:49 AM 46.0°F7.8°C 37.9°F3.3°C 73% 7.6 mph E12.2 kmh E 8.3 mph13.4 kmh 29.50 in999.0 mb 0.00 in0.0 mm 0.00 in0.0 mm 0.01 in0.3 mm
11:51 AM 46.6°F8.1°C 38.4°F3.6°C 73% 5.4 mph E8.7 kmh E 6.9 mph11.1 kmh 29.50 in999.0 mb 0.00 in0.0 mm 0.00 in0.0 mm 0.01 in0.3 mm
11:53 AM 46.9°F8.3°C 39.1°F3.9°C 74% 5.4 mph E8.7 kmh E 6.0 mph9.7 kmh 29.50 in999.0 mb 0.00 in0.0 mm 0.00 in0.0 mm 0.01 in0.3 mm
11:55 AM 47.5°F8.6°C 39.6°F4.2°C 74% 5.4 mph NE8.7 kmh NE 6.0 mph9.7 kmh 29.49 in998.6 mb 0.00 in0.0 mm 0.00 in0.0 mm 0.01 in0.3 mm
11:57 AM 47.7°F8.7°C 39.4°F4.1°C 73% 5.4 mph NE8.7 kmh NE 6.0 mph9.7 kmh 29.49 in998.6 mb 0.00 in0.0 mm 0.00 in0.0 mm 0.01 in0.3 mm
11:59 AM 47.8°F8.8°C 39.3°F4.1°C 72% 6.9 mph NE11.1 kmh NE 7.6 mph12.2 kmh 29.50 in999.0 mb 0.00 in0.0 mm 0.00 in0.0 mm 0.01 in0.3 mm
12:01 PM 47.8°F8.8°C 39.3°F4.1°C 72% 6.9 mph NE11.1 kmh NE 7.6 mph12.2 kmh 29.50 in999.0 mb 0.00 in0.0 mm 0.00 in0.0 mm 0.01 in0.3 mm
12:03 PM 47.8°F8.8°C 39.3°F4.1°C 72% 6.9 mph NE11.1 kmh NE 7.6 mph12.2 kmh 29.50 in999.0 mb 0.00 in0.0 mm 0.00 in0.0 mm 0.01 in0.3 mm
12:05 PM 47.8°F8.8°C 39.3°F4.1°C 72% 6.9 mph NE11.1 kmh NE 7.6 mph12.2 kmh 29.50 in999.0 mb 0.00 in0.0 mm 0.00 in0.0 mm 0.01 in0.3 mm
12:07 PM 47.5°F8.6°C 38.2°F3.4°C 70% 5.4 mph NE8.7 kmh NE 6.0 mph9.7 kmh 29.49 in998.6 mb 0.00 in0.0 mm 0.00 in0.0 mm 0.01 in0.3 mm
12:09 PM 47.5°F8.6°C 38.2°F3.4°C 70% 4.5 mph E7.2 kmh E 5.4 mph8.7 kmh 29.49 in998.6 mb 0.00 in0.0 mm 0.00 in0.0 mm 0.01 in0.3 mm
12:11 PM 47.7°F8.7°C 38.4°F3.6°C 70% 3.1 mph E5.0 kmh E 3.8 mph6.1 kmh 29.49 in998.6 mb 0.00 in0.0 mm 0.00 in0.0 mm 0.01 in0.3 mm
12:13 PM 47.8°F8.8°C 38.5°F3.6°C 70% 4.5 mph E7.2 kmh E 5.4 mph8.7 kmh 29.50 in999.0 mb 0.00 in0.0 mm 0.00 in0.0 mm 0.01 in0.3 mm
12:16 PM 48.0°F8.9°C 38.7°F3.7°C 70% 3.1 mph E5.0 kmh E 3.8 mph6.1 kmh 29.49 in998.6 mb 0.00 in0.0 mm 0.00 in0.0 mm 0.01 in0.3 mm
12:18 PM 48.2°F9.0°C 38.9°F3.8°C 70% 3.8 mph E6.1 kmh E 4.5 mph7.2 kmh 29.49 in998.6 mb 0.00 in0.0 mm 0.00 in0.0 mm 0.01 in0.3 mm
12:20 PM 48.6°F9.2°C 39.6°F4.2°C 71% 3.1 mph E5.0 kmh E 3.8 mph6.1 kmh 29.49 in998.6 mb 0.00 in0.0 mm 0.00 in0.0 mm 0.01 in0.3 mm
12:22 PM 48.6°F9.2°C 39.2°F4.0°C 70% 2.2 mph E3.5 kmh E 3.1 mph5.0 kmh 29.49 in998.6 mb 0.00 in0.0 mm 0.00 in0.0 mm 0.01 in0.3 mm
12:24 PM 48.6°F9.2°C 39.2°F4.0°C 70% 3.8 mph NE6.1 kmh NE 4.5 mph7.2 kmh 29.49 in998.6 mb 0.00 in0.0 mm 0.00 in0.0 mm 0.01 in0.3 mm
12:26 PM 48.6°F9.2°C 39.2°F4.0°C 70% 5.4 mph NE8.7 kmh NE 6.0 mph9.7 kmh 29.49 in998.6 mb 0.00 in0.0 mm 0.00 in0.0 mm 0.01 in0.3 mm
12:28 PM 48.7°F9.3°C 39.4°F4.1°C 70% 6.9 mph E11.1 kmh E 7.6 mph12.2 kmh 29.48 in998.3 mb 0.00 in0.0 mm 0.00 in0.0 mm 0.01 in0.3 mm
12:30 PM 48.9°F9.4°C 39.6°F4.2°C 70% 7.6 mph E12.2 kmh E 8.3 mph13.4 kmh 29.48 in998.3 mb 0.00 in0.0 mm 0.00 in0.0 mm 0.01 in0.3 mm
12:32 PM 48.6°F9.2°C 39.2°F4.0°C 70% 6.0 mph E9.7 kmh E 6.9 mph11.1 kmh 29.48 in998.3 mb 0.00 in0.0 mm 0.00 in0.0 mm 0.01 in0.3 mm
12:34 PM 48.2°F9.0°C 38.9°F3.8°C 70% 6.0 mph E9.7 kmh E 7.6 mph12.2 kmh 29.48 in998.3 mb 0.00 in0.0 mm 0.00 in0.0 mm 0.01 in0.3 mm
12:36 PM 48.0°F8.9°C 38.3°F3.5°C 69% 6.9 mph E11.1 kmh E 9.2 mph14.8 kmh 29.48 in998.3 mb 0.00 in0.0 mm 0.00 in0.0 mm 0.01 in0.3 mm
12:38 PM 47.7°F8.7°C 38.0°F3.3°C 69% 6.9 mph SE11.1 kmh SE 7.6 mph12.2 kmh 29.48 in998.3 mb 0.00 in0.0 mm 0.00 in0.0 mm 0.01 in0.3 mm
12:40 PM 47.5°F8.6°C 38.2°F3.4°C 70% 5.4 mph SE8.7 kmh SE 6.9 mph11.1 kmh 29.48 in998.3 mb 0.00 in0.0 mm 0.00 in0.0 mm 0.01 in0.3 mm
12:42 PM 47.5°F8.6°C 38.2°F3.4°C 70% 3.8 mph SE6.1 kmh SE 5.4 mph8.7 kmh 29.48 in998.3 mb 0.00 in0.0 mm 0.00 in0.0 mm 0.01 in0.3 mm
12:44 PM 47.5°F8.6°C 38.2°F3.4°C 70% 1.6 mph NW2.6 kmh NW 2.2 mph3.5 kmh 29.48 in998.3 mb 0.00 in0.0 mm 0.00 in0.0 mm 0.01 in0.3 mm
12:46 PM 47.3°F8.5°C 38.0°F3.3°C 70% 4.5 mph SE7.2 kmh SE 5.4 mph8.7 kmh 29.48 in998.3 mb 0.00 in0.0 mm 0.00 in0.0 mm 0.01 in0.3 mm
12:48 PM 47.5°F8.6°C 38.2°F3.4°C 70% 1.6 mph SE2.6 kmh SE 3.1 mph5.0 kmh 29.49 in998.6 mb 0.00 in0.0 mm 0.00 in0.0 mm 0.01 in0.3 mm
12:50 PM 47.5°F8.6°C 38.2°F3.4°C 70% 7.6 mph ENE12.2 kmh ENE 8.3 mph13.4 kmh 29.49 in998.6 mb 0.00 in0.0 mm 0.00 in0.0 mm 0.01 in0.3 mm
12:52 PM 47.5°F8.6°C 38.2°F3.4°C 70% 6.9 mph ENE11.1 kmh ENE 8.3 mph13.4 kmh 29.49 in998.6 mb 0.00 in0.0 mm 0.00 in0.0 mm 0.01 in0.3 mm
12:54 PM 47.1°F8.4°C 37.5°F3.1°C 69% 6.9 mph SE11.1 kmh SE 8.3 mph13.4 kmh 29.48 in998.3 mb 0.00 in0.0 mm 0.00 in0.0 mm 0.01 in0.3 mm
12:56 PM 46.9°F8.3°C 37.3°F2.9°C 69% 3.8 mph ENE6.1 kmh ENE 5.4 mph8.7 kmh 29.49 in998.6 mb 0.00 in0.0 mm 0.00 in0.0 mm 0.01 in0.3 mm
12:58 PM 46.9°F8.3°C 37.3°F2.9°C 69% 4.5 mph E7.2 kmh E 6.0 mph9.7 kmh 29.49 in998.6 mb 0.00 in0.0 mm 0.00 in0.0 mm 0.01 in0.3 mm
01:00 PM 46.8°F8.2°C 37.1°F2.8°C 69% 4.5 mph E7.2 kmh E 5.4 mph8.7 kmh 29.48 in998.3 mb 0.00 in0.0 mm 0.00 in0.0 mm 0.01 in0.3 mm
01:02 PM 46.6°F8.1°C 37.0°F2.8°C 69% 4.5 mph E7.2 kmh E 6.0 mph9.7 kmh 29.48 in998.3 mb 0.00 in0.0 mm 0.00 in0.0 mm 0.01 in0.3 mm
01:04 PM 46.6°F8.1°C 37.3°F2.9°C 70% 3.1 mph SE5.0 kmh SE 3.8 mph6.1 kmh 29.48 in998.3 mb 0.00 in0.0 mm 0.00 in0.0 mm 0.01 in0.3 mm
01:06 PM 46.6°F8.1°C 37.3°F2.9°C 70% 5.4 mph ENE8.7 kmh ENE 6.0 mph9.7 kmh 29.48 in998.3 mb 0.00 in0.0 mm 0.00 in0.0 mm 0.01 in0.3 mm
01:08 PM 46.6°F8.1°C 37.3°F2.9°C 70% 4.5 mph SE7.2 kmh SE 5.4 mph8.7 kmh 29.48 in998.3 mb 0.00 in0.0 mm 0.00 in0.0 mm 0.01 in0.3 mm
01:10 PM 46.8°F8.2°C 37.5°F3.1°C 70% 6.0 mph SE9.7 kmh SE 6.9 mph11.1 kmh 29.48 in998.3 mb 0.00 in0.0 mm 0.00 in0.0 mm 0.01 in0.3 mm
01:12 PM 46.8°F8.2°C 37.5°F3.1°C 70% 5.4 mph E8.7 kmh E 6.0 mph9.7 kmh 29.48 in998.3 mb 0.00 in0.0 mm 0.00 in0.0 mm 0.01 in0.3 mm
01:14 PM 46.9°F8.3°C 37.7°F3.2°C 70% 3.1 mph NE5.0 kmh NE 4.5 mph7.2 kmh 29.48 in998.3 mb 0.00 in0.0 mm 0.00 in0.0 mm 0.01 in0.3 mm
01:16 PM 47.1°F8.4°C 37.9°F3.3°C 70% 2.2 mph NNE3.5 kmh NNE 3.8 mph6.1 kmh 29.48 in998.3 mb 0.00 in0.0 mm 0.00 in0.0 mm 0.01 in0.3 mm
01:18 PM 47.3°F8.5°C 38.0°F3.3°C 70% 3.1 mph 5.0 kmh 3.8 mph6.1 kmh 29.48 in998.3 mb 0.00 in0.0 mm 0.00 in0.0 mm 0.01 in0.3 mm
01:20 PM 47.3°F8.5°C 38.0°F3.3°C 70% 3.1 mph 5.0 kmh 3.8 mph6.1 kmh 29.48 in998.3 mb 0.00 in0.0 mm 0.00 in0.0 mm 0.01 in0.3 mm
01:22 PM 47.7°F8.7°C 38.4°F3.6°C 70% 1.6 mph NE2.6 kmh NE 2.2 mph3.5 kmh 29.48 in998.3 mb 0.00 in0.0 mm 0.00 in0.0 mm 0.01 in0.3 mm
01:24 PM 47.7°F8.7°C 38.4°F3.6°C 70% 1.6 mph NE2.6 kmh NE 2.2 mph3.5 kmh 29.48 in998.3 mb 0.00 in0.0 mm 0.00 in0.0 mm 0.01 in0.3 mm
01:26 PM 48.0°F8.9°C 38.7°F3.7°C 70% 2.2 mph NNE3.5 kmh NNE 3.1 mph5.0 kmh 29.48 in998.3 mb 0.00 in0.0 mm 0.00 in0.0 mm 0.01 in0.3 mm
01:28 PM 48.2°F9.0°C 38.9°F3.8°C 70% 2.2 mph NE3.5 kmh NE 3.1 mph5.0 kmh 29.47 in998.0 mb 0.00 in0.0 mm 0.00 in0.0 mm 0.01 in0.3 mm
01:30 PM 48.6°F9.2°C 39.2°F4.0°C 70% Calm Calm 0.7 mph1.1 kmh 29.48 in998.3 mb 0.00 in0.0 mm 0.00 in0.0 mm 0.01 in0.3 mm
01:32 PM 48.6°F9.2°C 39.2°F4.0°C 70% 2.2 mph NNE3.5 kmh NNE 3.1 mph5.0 kmh 29.48 in998.3 mb 0.00 in0.0 mm 0.00 in0.0 mm 0.01 in0.3 mm
01:34 PM 48.4°F9.1°C 38.7°F3.7°C 69% Calm Calm -- 29.47 in998.0 mb 0.00 in0.0 mm 0.00 in0.0 mm 0.01 in0.3 mm
01:36 PM 48.2°F9.0°C 38.1°F3.4°C 68% 2.2 mph 3.5 kmh 3.1 mph5.0 kmh 29.47 in998.0 mb 0.00 in0.0 mm 0.00 in0.0 mm 0.01 in0.3 mm
01:38 PM 47.7°F8.7°C 36.5°F2.5°C 65% 0.7 mph 1.1 kmh 0.7 mph1.1 kmh 29.47 in998.0 mb 0.00 in0.0 mm 0.00 in0.0 mm 0.01 in0.3 mm
01:40 PM 47.3°F8.5°C 36.1°F2.3°C 65% Calm Calm -- 29.48 in998.3 mb 0.00 in0.0 mm 0.00 in0.0 mm 0.01 in0.3 mm
01:42 PM 47.3°F8.5°C 36.5°F2.5°C 66% 1.6 mph NE2.6 kmh NE 2.2 mph3.5 kmh 29.48 in998.3 mb 0.00 in0.0 mm 0.00 in0.0 mm 0.01 in0.3 mm
01:44 PM 47.3°F8.5°C 36.5°F2.5°C 66% 1.6 mph NE2.6 kmh NE 2.2 mph3.5 kmh 29.48 in998.3 mb 0.00 in0.0 mm 0.00 in0.0 mm 0.01 in0.3 mm
01:46 PM 47.1°F8.4°C 36.7°F2.6°C 67% 2.2 mph NE3.5 kmh NE 3.1 mph5.0 kmh 29.48 in998.3 mb 0.00 in0.0 mm 0.00 in0.0 mm 0.01 in0.3 mm
01:48 PM 46.9°F8.3°C 36.6°F2.6°C 67% 1.6 mph NE2.6 kmh NE 2.2 mph3.5 kmh 29.48 in998.3 mb 0.00 in0.0 mm 0.00 in0.0 mm 0.01 in0.3 mm
01:50 PM 46.9°F8.3°C 36.9°F2.7°C 68% 1.6 mph NE2.6 kmh NE 2.2 mph3.5 kmh 29.48 in998.3 mb 0.00 in0.0 mm 0.00 in0.0 mm 0.01 in0.3 mm
01:52 PM 46.8°F8.2°C 37.1°F2.8°C 69% 0.7 mph NE1.1 kmh NE 1.6 mph2.6 kmh 29.48 in998.3 mb 0.00 in0.0 mm 0.00 in0.0 mm 0.01 in0.3 mm
01:54 PM 46.6°F8.1°C 37.3°F2.9°C 70% 3.1 mph NE5.0 kmh NE 3.8 mph6.1 kmh 29.48 in998.3 mb 0.00 in0.0 mm 0.00 in0.0 mm 0.01 in0.3 mm
01:56 PM 46.6°F8.1°C 37.3°F2.9°C 70% 1.6 mph NE2.6 kmh NE 2.2 mph3.5 kmh 29.49 in998.6 mb 0.00 in0.0 mm 0.00 in0.0 mm 0.01 in0.3 mm
01:58 PM 46.4°F8.0°C 37.2°F2.9°C 70% 2.2 mph S3.5 kmh S 3.1 mph5.0 kmh 29.49 in998.6 mb 0.00 in0.0 mm 0.00 in0.0 mm 0.01 in0.3 mm
02:00 PM 46.2°F7.9°C 37.0°F2.8°C 70% 3.1 mph W5.0 kmh W 3.8 mph6.1 kmh 29.49 in998.6 mb 0.00 in0.0 mm 0.00 in0.0 mm 0.01 in0.3 mm
02:02 PM 46.2°F7.9°C 37.0°F2.8°C 70% 3.1 mph W5.0 kmh W 3.8 mph6.1 kmh 29.50 in999.0 mb 0.00 in0.0 mm 0.00 in0.0 mm 0.01 in0.3 mm
02:04 PM 46.2°F7.9°C 37.0°F2.8°C 70% 3.1 mph W5.0 kmh W 3.8 mph6.1 kmh 29.50 in999.0 mb 0.00 in0.0 mm 0.00 in0.0 mm 0.01 in0.3 mm
02:06 PM 43.9°F6.6°C 35.8°F2.1°C 73% 13.0 mph NW20.9 kmh NW 15.2 mph24.5 kmh 29.50 in999.0 mb 0.02 in0.5 mm 0.71 in18.0 mm 0.04 in1.0 mm
02:08 PM 43.3°F6.3°C 34.6°F1.4°C 71% 10.7 mph NW17.2 kmh NW 12.1 mph19.5 kmh 29.50 in999.0 mb 0.02 in0.5 mm 0.00 in0.0 mm 0.04 in1.0 mm
02:10 PM 42.3°F5.7°C 33.9°F1.1°C 72% 19.0 mph NW30.6 kmh NW 21.3 mph34.3 kmh 29.51 in999.3 mb 0.05 in1.3 mm 0.71 in18.0 mm 0.06 in1.5 mm
02:12 PM 42.1°F5.6°C 34.4°F1.3°C 74% 16.8 mph NW27.0 kmh NW 19.7 mph31.7 kmh 29.51 in999.3 mb 0.06 in1.5 mm 0.36 in9.1 mm 0.07 in1.8 mm
02:14 PM 41.9°F5.5°C 35.6°F2.0°C 78% 15.9 mph NW25.6 kmh NW 19.0 mph30.6 kmh 29.51 in999.3 mb 0.06 in1.5 mm 0.00 in0.0 mm 0.07 in1.8 mm
02:16 PM 41.7°F5.4°C 36.3°F2.4°C 81% 18.3 mph NW29.5 kmh NW 20.6 mph33.2 kmh 29.50 in999.0 mb 0.06 in1.5 mm 0.00 in0.0 mm 0.07 in1.8 mm
02:18 PM 41.7°F5.4°C 36.6°F2.6°C 82% 16.8 mph NW27.0 kmh NW 17.5 mph28.2 kmh 29.51 in999.3 mb 0.06 in1.5 mm 0.00 in0.0 mm 0.07 in1.8 mm
02:20 PM 41.7°F5.4°C 36.6°F2.6°C 82% 13.0 mph NW20.9 kmh NW 14.5 mph23.3 kmh 29.51 in999.3 mb 0.06 in1.5 mm 0.00 in0.0 mm 0.07 in1.8 mm
02:22 PM 41.7°F5.4°C 36.6°F2.6°C 82% 19.0 mph NW30.6 kmh NW 21.3 mph34.3 kmh 29.51 in999.3 mb 0.06 in1.5 mm 0.00 in0.0 mm 0.07 in1.8 mm
02:24 PM 41.7°F5.4°C 36.6°F2.6°C 82% 17.5 mph NW28.2 kmh NW 21.3 mph34.3 kmh 29.52 in999.7 mb 0.06 in1.5 mm 0.00 in0.0 mm 0.07 in1.8 mm
02:26 PM 41.7°F5.4°C 36.3°F2.4°C 81% 17.5 mph NW28.2 kmh NW 19.0 mph30.6 kmh 29.52 in999.7 mb 0.06 in1.5 mm 0.00 in0.0 mm 0.07 in1.8 mm
02:28 PM 41.7°F5.4°C 36.3°F2.4°C 81% 16.8 mph NW27.0 kmh NW 18.3 mph29.5 kmh 29.52 in999.7 mb 0.06 in1.5 mm 0.00 in0.0 mm 0.07 in1.8 mm
02:30 PM 41.7°F5.4°C 36.3°F2.4°C 81% 13.7 mph NW22.0 kmh NW 15.2 mph24.5 kmh 29.51 in999.3 mb 0.06 in1.5 mm 0.00 in0.0 mm 0.07 in1.8 mm
02:32 PM 41.7°F5.4°C 36.3°F2.4°C 81% 16.8 mph NW27.0 kmh NW 18.3 mph29.5 kmh 29.51 in999.3 mb 0.06 in1.5 mm 0.00 in0.0 mm 0.07 in1.8 mm
02:34 PM 41.7°F5.4°C 36.3°F2.4°C 81% 15.2 mph NNW24.5 kmh NNW 16.8 mph27.0 kmh 29.51 in999.3 mb 0.06 in1.5 mm 0.00 in0.0 mm 0.07 in1.8 mm
02:36 PM 41.7°F5.4°C 36.3°F2.4°C 81% 13.7 mph NW22.0 kmh NW 15.2 mph24.5 kmh 29.51 in999.3 mb 0.06 in1.5 mm 0.00 in0.0 mm 0.07 in1.8 mm
02:38 PM 41.7°F5.4°C 36.3°F2.4°C 81% 13.0 mph NW20.9 kmh NW 14.5 mph23.3 kmh 29.51 in999.3 mb 0.06 in1.5 mm 0.00 in0.0 mm 0.07 in1.8 mm
02:40 PM 41.7°F5.4°C 36.3°F2.4°C 81% 13.7 mph NW22.0 kmh NW 15.2 mph24.5 kmh 29.52 in999.7 mb 0.06 in1.5 mm 0.00 in0.0 mm 0.07 in1.8 mm
02:42 PM 41.9°F5.5°C 36.5°F2.5°C 81% 14.5 mph NW23.3 kmh NW 15.9 mph25.6 kmh 29.52 in999.7 mb 0.06 in1.5 mm 0.00 in0.0 mm 0.07 in1.8 mm
02:46 PM 41.9°F5.5°C 36.5°F2.5°C 81% 15.2 mph NW24.5 kmh NW 16.8 mph27.0 kmh 29.52 in999.7 mb 0.06 in1.5 mm 0.00 in0.0 mm 0.07 in1.8 mm
02:48 PM 41.9°F5.5°C 36.5°F2.5°C 81% 14.5 mph NNW23.3 kmh NNW 15.2 mph24.5 kmh 29.52 in999.7 mb 0.06 in1.5 mm 0.00 in0.0 mm 0.07 in1.8 mm
02:50 PM 41.9°F5.5°C 36.5°F2.5°C 81% 13.0 mph 20.9 kmh 13.7 mph22.0 kmh 29.52 in999.7 mb 0.06 in1.5 mm 0.00 in0.0 mm 0.07 in1.8 mm
02:52 PM 42.1°F5.6°C 36.7°F2.6°C 81% 10.7 mph NNW17.2 kmh NNW 11.4 mph18.3 kmh 29.52 in999.7 mb 0.06 in1.5 mm 0.00 in0.0 mm 0.07 in1.8 mm
02:54 PM 42.1°F5.6°C 36.7°F2.6°C 81% 11.4 mph NW18.3 kmh NW 12.1 mph19.5 kmh 29.52 in999.7 mb 0.06 in1.5 mm 0.00 in0.0 mm 0.07 in1.8 mm
02:56 PM 42.1°F5.6°C 36.7°F2.6°C 81% 9.8 mph NW15.8 kmh NW 10.7 mph17.2 kmh 29.52 in999.7 mb 0.06 in1.5 mm 0.00 in0.0 mm 0.07 in1.8 mm
02:58 PM 42.3°F5.7°C 37.2°F2.9°C 82% 6.9 mph NW11.1 kmh NW 7.6 mph12.2 kmh 29.53 in1000.0 mb 0.06 in1.5 mm 0.00 in0.0 mm 0.07 in1.8 mm
03:00 PM 42.3°F5.7°C 37.2°F2.9°C 82% 6.9 mph NW11.1 kmh NW 9.2 mph14.8 kmh 29.53 in1000.0 mb 0.06 in1.5 mm 0.00 in0.0 mm 0.07 in1.8 mm
03:02 PM 42.3°F5.7°C 36.9°F2.7°C 81% 7.6 mph NW12.2 kmh NW 9.2 mph14.8 kmh 29.53 in1000.0 mb 0.06 in1.5 mm 0.00 in0.0 mm 0.07 in1.8 mm
03:04 PM 42.3°F5.7°C 36.9°F2.7°C 81% 6.9 mph NW11.1 kmh NW 8.3 mph13.4 kmh 29.53 in1000.0 mb 0.06 in1.5 mm 0.00 in0.0 mm 0.07 in1.8 mm
03:06 PM 42.3°F5.7°C 36.9°F2.7°C 81% 3.8 mph NW6.1 kmh NW 4.5 mph7.2 kmh 29.53 in1000.0 mb 0.04 in1.0 mm 0.00 in0.0 mm 0.07 in1.8 mm
03:08 PM 42.4°F5.8°C 37.0°F2.8°C 81% 2.2 mph W3.5 kmh W 3.1 mph5.0 kmh 29.53 in1000.0 mb 0.02 in0.5 mm 0.00 in0.0 mm 0.07 in1.8 mm
03:10 PM 42.3°F5.7°C 36.9°F2.7°C 81% 4.5 mph W7.2 kmh W 6.0 mph9.7 kmh 29.53 in1000.0 mb 0.01 in0.3 mm 0.00 in0.0 mm 0.07 in1.8 mm
03:12 PM 42.3°F5.7°C 36.9°F2.7°C 81% 1.6 mph W2.6 kmh W 2.2 mph3.5 kmh 29.53 in1000.0 mb 0.00 in0.0 mm 0.00 in0.0 mm 0.07 in1.8 mm
03:14 PM 42.3°F5.7°C 36.9°F2.7°C 81% 0.7 mph W1.1 kmh W 1.6 mph2.6 kmh 29.53 in1000.0 mb 0.00 in0.0 mm 0.00 in0.0 mm 0.07 in1.8 mm
03:16 PM 42.3°F5.7°C 36.9°F2.7°C 81% 3.1 mph W5.0 kmh W 3.8 mph6.1 kmh 29.53 in1000.0 mb 0.00 in0.0 mm 0.00 in0.0 mm 0.07 in1.8 mm
03:18 PM 42.3°F5.7°C 36.9°F2.7°C 81% 0.7 mph W1.1 kmh W 1.6 mph2.6 kmh 29.53 in1000.0 mb 0.00 in0.0 mm 0.00 in0.0 mm 0.07 in1.8 mm
03:20 PM 42.3°F5.7°C 36.9°F2.7°C 81% Calm Calm -- 29.53 in1000.0 mb 0.00 in0.0 mm 0.00 in0.0 mm 0.07 in1.8 mm
03:22 PM 42.3°F5.7°C 36.9°F2.7°C 81% 1.6 mph W2.6 kmh W 2.2 mph3.5 kmh 29.53 in1000.0 mb 0.00 in0.0 mm 0.00 in0.0 mm 0.07 in1.8 mm
03:24 PM 42.3°F5.7°C 36.9°F2.7°C 81% 0.7 mph W1.1 kmh W 0.7 mph1.1 kmh 29.53 in1000.0 mb 0.00 in0.0 mm 0.00 in0.0 mm 0.07 in1.8 mm
03:26 PM 42.3°F5.7°C 36.9°F2.7°C 81% 0.7 mph W1.1 kmh W 1.6 mph2.6 kmh 29.52 in999.7 mb 0.00 in0.0 mm 0.00 in0.0 mm 0.07 in1.8 mm
03:28 PM 42.4°F5.8°C 37.3°F2.9°C 82% 2.2 mph W3.5 kmh W 3.1 mph5.0 kmh 29.52 in999.7 mb 0.00 in0.0 mm 0.00 in0.0 mm 0.07 in1.8 mm
03:30 PM 42.6°F5.9°C 37.5°F3.1°C 82% 0.7 mph W1.1 kmh W 1.6 mph2.6 kmh 29.52 in999.7 mb 0.00 in0.0 mm 0.00 in0.0 mm 0.07 in1.8 mm
03:32 PM 42.6°F5.9°C 37.5°F3.1°C 82% 1.6 mph W2.6 kmh W 2.2 mph3.5 kmh 29.52 in999.7 mb 0.00 in0.0 mm 0.00 in0.0 mm 0.07 in1.8 mm
03:34 PM 43.0°F6.1°C 37.9°F3.3°C 82% 1.6 mph SW2.6 kmh SW 2.2 mph3.5 kmh 29.52 in999.7 mb 0.00 in0.0 mm 0.00 in0.0 mm 0.07 in1.8 mm
03:36 PM 43.5°F6.4°C 38.7°F3.7°C 83% 1.6 mph SW2.6 kmh SW 2.2 mph3.5 kmh 29.53 in1000.0 mb 0.00 in0.0 mm 0.00 in0.0 mm 0.07 in1.8 mm
03:38 PM 43.9°F6.6°C 39.1°F3.9°C 83% 1.6 mph SW2.6 kmh SW 2.2 mph3.5 kmh 29.53 in1000.0 mb 0.00 in0.0 mm 0.00 in0.0 mm 0.07 in1.8 mm
03:40 PM 44.2°F6.8°C 39.4°F4.1°C 83% 2.2 mph SW3.5 kmh SW 3.1 mph5.0 kmh 29.53 in1000.0 mb 0.00 in0.0 mm 0.00 in0.0 mm 0.07 in1.8 mm
03:42 PM 44.6°F7.0°C 40.1°F4.5°C 84% Calm Calm 0.7 mph1.1 kmh 29.54 in1000.3 mb 0.00 in0.0 mm 0.00 in0.0 mm 0.07 in1.8 mm
03:45 PM 44.6°F7.0°C 40.1°F4.5°C 84% Calm Calm 0.7 mph1.1 kmh 29.54 in1000.3 mb 0.00 in0.0 mm 0.00 in0.0 mm 0.07 in1.8 mm
03:47 PM 44.2°F6.8°C 39.4°F4.1°C 83% Calm Calm -- 29.54 in1000.3 mb 0.00 in0.0 mm 0.00 in0.0 mm 0.07 in1.8 mm
03:49 PM 44.1°F6.7°C 38.9°F3.8°C 82% 0.7 mph SW1.1 kmh SW 1.6 mph2.6 kmh 29.54 in1000.3 mb 0.00 in0.0 mm 0.00 in0.0 mm 0.07 in1.8 mm
03:51 PM 43.9°F6.6°C 38.8°F3.8°C 82% Calm Calm 0.7 mph1.1 kmh 29.54 in1000.3 mb 0.00 in0.0 mm 0.00 in0.0 mm 0.07 in1.8 mm
03:53 PM 43.7°F6.5°C 38.3°F3.5°C 81% Calm Calm -- 29.55 in1000.7 mb 0.00 in0.0 mm 0.00 in0.0 mm 0.07 in1.8 mm
03:55 PM 43.7°F6.5°C 38.3°F3.5°C 81% 0.7 mph SW1.1 kmh SW 1.6 mph2.6 kmh 29.54 in1000.3 mb 0.00 in0.0 mm 0.00 in0.0 mm 0.07 in1.8 mm
03:57 PM 43.7°F6.5°C 38.3°F3.5°C 81% 0.7 mph SW1.1 kmh SW 1.6 mph2.6 kmh 29.55 in1000.7 mb 0.00 in0.0 mm 0.00 in0.0 mm 0.07 in1.8 mm
03:59 PM 43.7°F6.5°C 38.3°F3.5°C 81% 0.7 mph SW1.1 kmh SW 1.6 mph2.6 kmh 29.55 in1000.7 mb 0.00 in0.0 mm 0.00 in0.0 mm 0.07 in1.8 mm
04:01 PM 43.7°F6.5°C 38.3°F3.5°C 81% Calm Calm -- 29.55 in1000.7 mb 0.00 in0.0 mm 0.00 in0.0 mm 0.07 in1.8 mm
04:03 PM 43.7°F6.5°C 38.3°F3.5°C 81% Calm Calm -- 29.55 in1000.7 mb 0.00 in0.0 mm 0.00 in0.0 mm 0.07 in1.8 mm
04:05 PM 43.7°F6.5°C 38.3°F3.5°C 81% Calm Calm -- 29.55 in1000.7 mb 0.00 in0.0 mm 0.00 in0.0 mm 0.07 in1.8 mm
04:07 PM 43.5°F6.4°C 38.1°F3.4°C 81% Calm Calm 0.7 mph1.1 kmh 29.55 in1000.7 mb 0.00 in0.0 mm 0.00 in0.0 mm 0.07 in1.8 mm
04:09 PM 43.3°F6.3°C 37.9°F3.3°C 81% Calm Calm -- 29.55 in1000.7 mb 0.00 in0.0 mm 0.00 in0.0 mm 0.07 in1.8 mm
04:11 PM 43.3°F6.3°C 37.9°F3.3°C 81% Calm Calm -- 29.56 in1001.0 mb 0.00 in0.0 mm 0.00 in0.0 mm 0.07 in1.8 mm
04:13 PM 43.2°F6.2°C 37.7°F3.2°C 81% Calm Calm -- 29.56 in1001.0 mb 0.00 in0.0 mm 0.00 in0.0 mm 0.07 in1.8 mm
04:15 PM 43.0°F6.1°C 37.6°F3.1°C 81% Calm Calm -- 29.57 in1001.4 mb 0.00 in0.0 mm 0.00 in0.0 mm 0.07 in1.8 mm
04:17 PM 43.0°F6.1°C 37.6°F3.1°C 81% Calm Calm -- 29.56 in1001.0 mb 0.00 in0.0 mm 0.00 in0.0 mm 0.07 in1.8 mm
04:19 PM 42.8°F6.0°C 37.4°F3.0°C 81% Calm Calm -- 29.56 in1001.0 mb 0.00 in0.0 mm 0.00 in0.0 mm 0.07 in1.8 mm
04:21 PM 42.8°F6.0°C 37.4°F3.0°C 81% Calm Calm -- 29.56 in1001.0 mb 0.00 in0.0 mm 0.00 in0.0 mm 0.07 in1.8 mm
04:23 PM 42.8°F6.0°C 37.4°F3.0°C 81% 0.7 mph SW1.1 kmh SW 1.6 mph2.6 kmh 29.56 in1001.0 mb 0.00 in0.0 mm 0.00 in0.0 mm 0.07 in1.8 mm
04:25 PM 42.8°F6.0°C 37.4°F3.0°C 81% 0.7 mph SW1.1 kmh SW 1.6 mph2.6 kmh 29.57 in1001.4 mb 0.00 in0.0 mm 0.00 in0.0 mm 0.07 in1.8 mm
04:27 PM 42.6°F5.9°C 37.2°F2.9°C 81% 0.7 mph SW1.1 kmh SW 1.6 mph2.6 kmh 29.57 in1001.4 mb 0.00 in0.0 mm 0.00 in0.0 mm 0.07 in1.8 mm
04:29 PM 42.4°F5.8°C 37.0°F2.8°C 81% 1.6 mph SW2.6 kmh SW 2.2 mph3.5 kmh 29.57 in1001.4 mb 0.00 in0.0 mm 0.00 in0.0 mm 0.07 in1.8 mm
04:31 PM 42.4°F5.8°C 37.0°F2.8°C 81% Calm Calm 0.7 mph1.1 kmh 29.58 in1001.7 mb 0.00 in0.0 mm 0.00 in0.0 mm 0.07 in1.8 mm
04:33 PM 42.4°F5.8°C 37.0°F2.8°C 81% 0.7 mph SW1.1 kmh SW 1.6 mph2.6 kmh 29.58 in1001.7 mb 0.00 in0.0 mm 0.00 in0.0 mm 0.07 in1.8 mm
04:35 PM 42.4°F5.8°C 37.0°F2.8°C 81% 0.7 mph SW1.1 kmh SW 1.6 mph2.6 kmh 29.57 in1001.4 mb 0.00 in0.0 mm 0.00 in0.0 mm 0.07 in1.8 mm
04:37 PM 42.3°F5.7°C 36.9°F2.7°C 81% 0.7 mph SW1.1 kmh SW 1.6 mph2.6 kmh 29.57 in1001.4 mb 0.00 in0.0 mm 0.00 in0.0 mm 0.07 in1.8 mm
04:39 PM 42.3°F5.7°C 36.9°F2.7°C 81% Calm Calm 0.7 mph1.1 kmh 29.57 in1001.4 mb 0.00 in0.0 mm 0.00 in0.0 mm 0.07 in1.8 mm
04:41 PM 42.3°F5.7°C 36.9°F2.7°C 81% Calm Calm -- 29.57 in1001.4 mb 0.00 in0.0 mm 0.00 in0.0 mm 0.07 in1.8 mm
04:43 PM 42.3°F5.7°C 36.9°F2.7°C 81% Calm Calm 0.7 mph1.1 kmh 29.57 in1001.4 mb 0.00 in0.0 mm 0.00 in0.0 mm 0.07 in1.8 mm
04:45 PM 42.3°F5.7°C 37.2°F2.9°C 82% Calm Calm 0.7 mph1.1 kmh 29.57 in1001.4 mb 0.00 in0.0 mm 0.00 in0.0 mm 0.07 in1.8 mm
04:47 PM 42.3°F5.7°C 37.2°F2.9°C 82% Calm Calm 0.7 mph1.1 kmh 29.58 in1001.7 mb 0.00 in0.0 mm 0.00 in0.0 mm 0.07 in1.8 mm
04:49 PM 42.3°F5.7°C 37.2°F2.9°C 82% Calm Calm -- 29.57 in1001.4 mb 0.00 in0.0 mm 0.00 in0.0 mm 0.07 in1.8 mm
04:51 PM 42.3°F5.7°C 37.2°F2.9°C 82% 0.7 mph SW1.1 kmh SW 1.6 mph2.6 kmh 29.58 in1001.7 mb 0.00 in0.0 mm 0.00 in0.0 mm 0.07 in1.8 mm
04:53 PM 42.3°F5.7°C 37.2°F2.9°C 82% 0.7 mph SW1.1 kmh SW 0.7 mph1.1 kmh 29.57 in1001.4 mb 0.00 in0.0 mm 0.00 in0.0 mm 0.07 in1.8 mm
04:55 PM 42.3°F5.7°C 37.2°F2.9°C 82% Calm Calm -- 29.57 in1001.4 mb 0.00 in0.0 mm 0.00 in0.0 mm 0.07 in1.8 mm
04:57 PM 42.3°F5.7°C 37.2°F2.9°C 82% Calm Calm -- 29.57 in1001.4 mb 0.00 in0.0 mm 0.00 in0.0 mm 0.07 in1.8 mm
04:59 PM 42.3°F5.7°C 37.2°F2.9°C 82% Calm Calm -- 29.57 in1001.4 mb 0.00 in0.0 mm 0.00 in0.0 mm 0.07 in1.8 mm
05:01 PM 42.3°F5.7°C 37.2°F2.9°C 82% Calm Calm -- 29.57 in1001.4 mb 0.00 in0.0 mm 0.00 in0.0 mm 0.07 in1.8 mm
05:03 PM 42.3°F5.7°C 37.2°F2.9°C 82% 3.1 mph E5.0 kmh E 3.8 mph6.1 kmh 29.57 in1001.4 mb 0.00 in0.0 mm 0.00 in0.0 mm 0.07 in1.8 mm
05:05 PM 42.1°F5.6°C 37.0°F2.8°C 82% 4.5 mph E7.2 kmh E 5.4 mph8.7 kmh 29.57 in1001.4 mb 0.00 in0.0 mm 0.00 in0.0 mm 0.07 in1.8 mm
05:07 PM 42.1°F5.6°C 37.0°F2.8°C 82% 3.1 mph E5.0 kmh E 3.8 mph6.1 kmh 29.57 in1001.4 mb 0.00 in0.0 mm 0.00 in0.0 mm 0.07 in1.8 mm
05:09 PM 42.1°F5.6°C 37.0°F2.8°C 82% 0.7 mph E1.1 kmh E 1.6 mph2.6 kmh 29.57 in1001.4 mb 0.00 in0.0 mm 0.00 in0.0 mm 0.07 in1.8 mm
05:11 PM 41.9°F5.5°C 36.8°F2.7°C 82% 0.7 mph E1.1 kmh E 1.6 mph2.6 kmh 29.57 in1001.4 mb 0.00 in0.0 mm 0.00 in0.0 mm 0.07 in1.8 mm
05:13 PM 41.9°F5.5°C 36.8°F2.7°C 82% 1.6 mph E2.6 kmh E 2.2 mph3.5 kmh 29.58 in1001.7 mb 0.00 in0.0 mm 0.00 in0.0 mm 0.07 in1.8 mm
05:15 PM 41.7°F5.4°C 36.6°F2.6°C 82% 1.6 mph E2.6 kmh E 2.2 mph3.5 kmh 29.57 in1001.4 mb 0.00 in0.0 mm 0.00 in0.0 mm 0.07 in1.8 mm
05:17 PM 41.7°F5.4°C 36.6°F2.6°C 82% 1.6 mph E2.6 kmh E 2.2 mph3.5 kmh 29.58 in1001.7 mb 0.00 in0.0 mm 0.00 in0.0 mm 0.07 in1.8 mm
05:19 PM 41.5°F5.3°C 36.5°F2.5°C 82% 4.5 mph E7.2 kmh E 5.4 mph8.7 kmh 29.57 in1001.4 mb 0.00 in0.0 mm 0.00 in0.0 mm 0.07 in1.8 mm
05:21 PM 41.5°F5.3°C 36.5°F2.5°C 82% 4.5 mph E7.2 kmh E 5.4 mph8.7 kmh 29.57 in1001.4 mb 0.00 in0.0 mm 0.00 in0.0 mm 0.07 in1.8 mm
05:23 PM 41.4°F5.2°C 36.6°F2.6°C 83% 3.1 mph E5.0 kmh E 3.8 mph6.1 kmh 29.58 in1001.7 mb 0.00 in0.0 mm 0.00 in0.0 mm 0.07 in1.8 mm
05:25 PM 41.4°F5.2°C 36.6°F2.6°C 83% 1.6 mph E2.6 kmh E 2.2 mph3.5 kmh 29.58 in1001.7 mb 0.00 in0.0 mm 0.00 in0.0 mm 0.07 in1.8 mm
05:27 PM 41.2°F5.1°C 36.4°F2.4°C 83% 2.2 mph E3.5 kmh E 3.1 mph5.0 kmh 29.58 in1001.7 mb 0.00 in0.0 mm 0.00 in0.0 mm 0.07 in1.8 mm
05:29 PM 41.2°F5.1°C 36.4°F2.4°C 83% 2.2 mph E3.5 kmh E 2.2 mph3.5 kmh 29.58 in1001.7 mb 0.00 in0.0 mm 0.00 in0.0 mm 0.07 in1.8 mm
05:31 PM 41.0°F5.0°C 36.2°F2.3°C 83% 1.6 mph E2.6 kmh E 2.2 mph3.5 kmh 29.58 in1001.7 mb 0.00 in0.0 mm 0.00 in0.0 mm 0.07 in1.8 mm
05:33 PM 41.0°F5.0°C 36.2°F2.3°C 83% 1.6 mph E2.6 kmh E 2.2 mph3.5 kmh 29.58 in1001.7 mb 0.00 in0.0 mm 0.00 in0.0 mm 0.07 in1.8 mm
05:35 PM 40.8°F4.9°C 36.1°F2.3°C 83% 1.6 mph E2.6 kmh E 2.2 mph3.5 kmh 29.59 in1002.0 mb 0.00 in0.0 mm 0.00 in0.0 mm 0.07 in1.8 mm
05:37 PM 40.8°F4.9°C 36.1°F2.3°C 83% 0.7 mph E1.1 kmh E 1.6 mph2.6 kmh 29.58 in1001.7 mb 0.00 in0.0 mm 0.00 in0.0 mm 0.07 in1.8 mm
05:39 PM 40.6°F4.8°C 35.9°F2.2°C 83% 0.7 mph E1.1 kmh E 1.6 mph2.6 kmh 29.58 in1001.7 mb 0.00 in0.0 mm 0.00 in0.0 mm 0.07 in1.8 mm
05:41 PM 40.5°F4.7°C 35.7°F2.1°C 83% 0.7 mph E1.1 kmh E 1.6 mph2.6 kmh 29.58 in1001.7 mb 0.00 in0.0 mm 0.00 in0.0 mm 0.07 in1.8 mm
05:43 PM 40.1°F4.5°C 35.4°F1.9°C 83% 0.7 mph E1.1 kmh E 1.6 mph2.6 kmh 29.58 in1001.7 mb 0.00 in0.0 mm 0.00 in0.0 mm 0.07 in1.8 mm
05:45 PM 39.9°F4.4°C 35.2°F1.8°C 83% Calm Calm 0.7 mph1.1 kmh 29.59 in1002.0 mb 0.00 in0.0 mm 0.00 in0.0 mm 0.07 in1.8 mm
05:47 PM 39.9°F4.4°C 35.2°F1.8°C 83% 0.7 mph E1.1 kmh E 1.6 mph2.6 kmh 29.59 in1002.0 mb 0.00 in0.0 mm 0.00 in0.0 mm 0.07 in1.8 mm
05:49 PM 39.9°F4.4°C 35.2°F1.8°C 83% 0.7 mph E1.1 kmh E 1.6 mph2.6 kmh 29.59 in1002.0 mb 0.00 in0.0 mm 0.00 in0.0 mm 0.07 in1.8 mm
05:51 PM 39.7°F4.3°C 35.0°F1.7°C 83% 0.7 mph E1.1 kmh E 1.6 mph2.6 kmh 29.59 in1002.0 mb 0.00 in0.0 mm 0.00 in0.0 mm 0.07 in1.8 mm
05:53 PM 39.7°F4.3°C 35.0°F1.7°C 83% 0.7 mph E1.1 kmh E 1.6 mph2.6 kmh 29.59 in1002.0 mb 0.00 in0.0 mm 0.00 in0.0 mm 0.07 in1.8 mm
05:55 PM 39.6°F4.2°C 34.8°F1.6°C 83% 0.7 mph E1.1 kmh E 1.6 mph2.6 kmh 29.59 in1002.0 mb 0.00 in0.0 mm 0.00 in0.0 mm 0.07 in1.8 mm
05:57 PM 39.6°F4.2°C 34.8°F1.6°C 83% Calm Calm 0.7 mph1.1 kmh 29.58 in1001.7 mb 0.00 in0.0 mm 0.00 in0.0 mm 0.07 in1.8 mm
05:59 PM 39.4°F4.1°C 34.7°F1.5°C 83% 0.7 mph E1.1 kmh E 1.6 mph2.6 kmh 29.59 in1002.0 mb 0.00 in0.0 mm 0.00 in0.0 mm 0.07 in1.8 mm
06:01 PM 39.6°F4.2°C 34.8°F1.6°C 83% Calm Calm 0.7 mph1.1 kmh 29.59 in1002.0 mb 0.00 in0.0 mm 0.00 in0.0 mm 0.07 in1.8 mm
06:03 PM 39.6°F4.2°C 34.8°F1.6°C 83% Calm Calm -- 29.59 in1002.0 mb 0.00 in0.0 mm 0.00 in0.0 mm 0.07 in1.8 mm
06:05 PM 39.6°F4.2°C 34.8°F1.6°C 83% Calm Calm -- 29.59 in1002.0 mb 0.00 in0.0 mm 0.00 in0.0 mm 0.07 in1.8 mm
06:07 PM 39.4°F4.1°C 35.0°F1.7°C 84% Calm Calm 0.7 mph1.1 kmh 29.60 in1002.4 mb 0.00 in0.0 mm 0.00 in0.0 mm 0.07 in1.8 mm
06:09 PM 39.4°F4.1°C 35.0°F1.7°C 84% Calm Calm -- 29.59 in1002.0 mb 0.00 in0.0 mm 0.00 in0.0 mm 0.07 in1.8 mm
06:11 PM 39.4°F4.1°C 35.0°F1.7°C 84% 3.8 mph E6.1 kmh E 4.5 mph7.2 kmh 29.59 in1002.0 mb 0.00 in0.0 mm 0.00 in0.0 mm 0.07 in1.8 mm
06:13 PM 39.4°F4.1°C 35.0°F1.7°C 84% 1.6 mph E2.6 kmh E 2.2 mph3.5 kmh 29.60 in1002.4 mb 0.00 in0.0 mm 0.00 in0.0 mm 0.07 in1.8 mm
06:15 PM 39.6°F4.2°C 35.1°F1.7°C 84% 0.7 mph E1.1 kmh E 1.6 mph2.6 kmh 29.60 in1002.4 mb 0.00 in0.0 mm 0.00 in0.0 mm 0.07 in1.8 mm
06:17 PM 39.6°F4.2°C 35.1°F1.7°C 84% 0.7 mph E1.1 kmh E 1.6 mph2.6 kmh 29.61 in1002.7 mb 0.00 in0.0 mm 0.00 in0.0 mm 0.07 in1.8 mm
06:19 PM 39.7°F4.3°C 35.3°F1.8°C 84% 1.6 mph E2.6 kmh E 2.2 mph3.5 kmh 29.61 in1002.7 mb 0.00 in0.0 mm 0.00 in0.0 mm 0.07 in1.8 mm
06:21 PM 39.7°F4.3°C 35.3°F1.8°C 84% 2.2 mph E3.5 kmh E 2.2 mph3.5 kmh 29.60 in1002.4 mb 0.00 in0.0 mm 0.00 in0.0 mm 0.07 in1.8 mm
06:25 PM 39.7°F4.3°C 35.6°F2.0°C 85% 3.1 mph SE5.0 kmh SE 3.8 mph6.1 kmh 29.60 in1002.4 mb 0.00 in0.0 mm 0.00 in0.0 mm 0.07 in1.8 mm
06:27 PM 39.7°F4.3°C 35.6°F2.0°C 85% 3.1 mph SE5.0 kmh SE 3.8 mph6.1 kmh 29.61 in1002.7 mb 0.00 in0.0 mm 0.00 in0.0 mm 0.07 in1.8 mm
06:29 PM 39.7°F4.3°C 35.6°F2.0°C 85% 3.1 mph SE5.0 kmh SE 3.8 mph6.1 kmh 29.61 in1002.7 mb 0.00 in0.0 mm 0.00 in0.0 mm 0.07 in1.8 mm
06:31 PM 39.7°F4.3°C 35.6°F2.0°C 85% 1.6 mph SE2.6 kmh SE 2.2 mph3.5 kmh 29.61 in1002.7 mb 0.00 in0.0 mm 0.00 in0.0 mm 0.07 in1.8 mm
06:33 PM 39.7°F4.3°C 35.6°F2.0°C 85% 2.2 mph SE3.5 kmh SE 3.1 mph5.0 kmh 29.61 in1002.7 mb 0.00 in0.0 mm 0.00 in0.0 mm 0.07 in1.8 mm
06:35 PM 39.7°F4.3°C 35.6°F2.0°C 85% 2.2 mph ENE3.5 kmh ENE 3.1 mph5.0 kmh 29.61 in1002.7 mb 0.00 in0.0 mm 0.00 in0.0 mm 0.07 in1.8 mm
06:37 PM 39.7°F4.3°C 35.6°F2.0°C 85% 2.2 mph E3.5 kmh E 3.1 mph5.0 kmh 29.61 in1002.7 mb 0.00 in0.0 mm 0.00 in0.0 mm 0.07 in1.8 mm
06:39 PM 39.7°F4.3°C 35.6°F2.0°C 85% 2.2 mph E3.5 kmh E 3.8 mph6.1 kmh 29.61 in1002.7 mb 0.00 in0.0 mm 0.00 in0.0 mm 0.07 in1.8 mm
06:41 PM 39.7°F4.3°C 35.6°F2.0°C 85% 2.2 mph E3.5 kmh E 3.1 mph5.0 kmh 29.62 in1003.0 mb 0.00 in0.0 mm 0.00 in0.0 mm 0.07 in1.8 mm
06:43 PM 39.9°F4.4°C 36.1°F2.3°C 86% 3.1 mph E5.0 kmh E 3.8 mph6.1 kmh 29.61 in1002.7 mb 0.00 in0.0 mm 0.00 in0.0 mm 0.07 in1.8 mm
06:45 PM 39.9°F4.4°C 36.1°F2.3°C 86% 3.1 mph E5.0 kmh E 3.8 mph6.1 kmh 29.61 in1002.7 mb 0.00 in0.0 mm 0.00 in0.0 mm 0.07 in1.8 mm
06:47 PM 39.9°F4.4°C 36.1°F2.3°C 86% 3.1 mph E5.0 kmh E 3.8 mph6.1 kmh 29.61 in1002.7 mb 0.00 in0.0 mm 0.00 in0.0 mm 0.07 in1.8 mm
06:50 PM 39.9°F4.4°C 36.1°F2.3°C 86% 3.8 mph NE6.1 kmh NE 4.5 mph7.2 kmh 29.61 in1002.7 mb 0.00 in0.0 mm 0.00 in0.0 mm 0.07 in1.8 mm
06:52 PM 39.9°F4.4°C 36.1°F2.3°C 86% 3.1 mph NE5.0 kmh NE 3.8 mph6.1 kmh 29.61 in1002.7 mb 0.00 in0.0 mm 0.00 in0.0 mm 0.07 in1.8 mm
06:54 PM 39.9°F4.4°C 36.1°F2.3°C 86% 3.1 mph NE5.0 kmh NE 3.8 mph6.1 kmh 29.62 in1003.0 mb 0.00 in0.0 mm 0.00 in0.0 mm 0.07 in1.8 mm
06:56 PM 39.7°F4.3°C 35.9°F2.2°C 86% 3.1 mph NE5.0 kmh NE 3.8 mph6.1 kmh 29.61 in1002.7 mb 0.00 in0.0 mm 0.00 in0.0 mm 0.07 in1.8 mm
06:58 PM 39.7°F4.3°C 35.9°F2.2°C 86% 3.8 mph NE6.1 kmh NE 4.5 mph7.2 kmh 29.62 in1003.0 mb 0.00 in0.0 mm 0.00 in0.0 mm 0.07 in1.8 mm
07:00 PM 39.7°F4.3°C 35.9°F2.2°C 86% 3.8 mph NE6.1 kmh NE 4.5 mph7.2 kmh 29.62 in1003.0 mb 0.00 in0.0 mm 0.00 in0.0 mm 0.07 in1.8 mm
07:02 PM 39.6°F4.2°C 35.7°F2.1°C 86% 3.8 mph NE6.1 kmh NE 4.5 mph7.2 kmh 29.62 in1003.0 mb 0.00 in0.0 mm 0.00 in0.0 mm 0.07 in1.8 mm
07:04 PM 39.6°F4.2°C 35.7°F2.1°C 86% 3.1 mph NE5.0 kmh NE 3.8 mph6.1 kmh 29.62 in1003.0 mb 0.00 in0.0 mm 0.00 in0.0 mm 0.07 in1.8 mm
07:06 PM 39.7°F4.3°C 35.9°F2.2°C 86% 3.1 mph NE5.0 kmh NE 3.8 mph6.1 kmh 29.62 in1003.0 mb 0.00 in0.0 mm 0.00 in0.0 mm 0.07 in1.8 mm
07:08 PM 39.7°F4.3°C 35.9°F2.2°C 86% 3.1 mph NE5.0 kmh NE 3.8 mph6.1 kmh 29.62 in1003.0 mb 0.00 in0.0 mm 0.00 in0.0 mm 0.07 in1.8 mm
07:10 PM 39.7°F4.3°C 35.9°F2.2°C 86% 3.1 mph NE5.0 kmh NE 3.8 mph6.1 kmh 29.62 in1003.0 mb 0.00 in0.0 mm 0.00 in0.0 mm 0.07 in1.8 mm
07:12 PM 39.7°F4.3°C 35.9°F2.2°C 86% 5.4 mph NE8.7 kmh NE 6.0 mph9.7 kmh 29.62 in1003.0 mb 0.00 in0.0 mm 0.00 in0.0 mm 0.07 in1.8 mm
07:14 PM 39.9°F4.4°C 36.1°F2.3°C 86% 3.8 mph NE6.1 kmh NE 4.5 mph7.2 kmh 29.63 in1003.4 mb 0.00 in0.0 mm 0.00 in0.0 mm 0.07 in1.8 mm
07:16 PM 39.9°F4.4°C 36.1°F2.3°C 86% 3.8 mph NNE6.1 kmh NNE 4.5 mph7.2 kmh 29.63 in1003.4 mb 0.00 in0.0 mm 0.00 in0.0 mm 0.07 in1.8 mm
07:18 PM 40.1°F4.5°C 36.3°F2.4°C 86% 4.5 mph 7.2 kmh 5.4 mph8.7 kmh 29.63 in1003.4 mb 0.00 in0.0 mm 0.00 in0.0 mm 0.07 in1.8 mm
07:20 PM 40.1°F4.5°C 36.3°F2.4°C 86% 4.5 mph 7.2 kmh 5.4 mph8.7 kmh 29.63 in1003.4 mb 0.00 in0.0 mm 0.00 in0.0 mm 0.07 in1.8 mm
07:22 PM 40.1°F4.5°C 36.3°F2.4°C 86% 4.5 mph 7.2 kmh 5.4 mph8.7 kmh 29.62 in1003.0 mb 0.00 in0.0 mm 0.00 in0.0 mm 0.07 in1.8 mm
07:24 PM 40.1°F4.5°C 36.6°F2.6°C 87% 5.4 mph 8.7 kmh 6.0 mph9.7 kmh 29.62 in1003.0 mb 0.00 in0.0 mm 0.00 in0.0 mm 0.07 in1.8 mm
07:26 PM 40.1°F4.5°C 36.6°F2.6°C 87% 3.8 mph 6.1 kmh 4.5 mph7.2 kmh 29.63 in1003.4 mb 0.00 in0.0 mm 0.00 in0.0 mm 0.07 in1.8 mm
07:28 PM 40.1°F4.5°C 36.6°F2.6°C 87% 3.8 mph 6.1 kmh 4.5 mph7.2 kmh 29.63 in1003.4 mb 0.00 in0.0 mm 0.00 in0.0 mm 0.07 in1.8 mm
07:30 PM 40.1°F4.5°C 36.6°F2.6°C 87% 2.2 mph 3.5 kmh 3.1 mph5.0 kmh 29.63 in1003.4 mb 0.00 in0.0 mm 0.00 in0.0 mm 0.07 in1.8 mm
07:32 PM 40.1°F4.5°C 36.6°F2.6°C 87% 3.1 mph 5.0 kmh 3.8 mph6.1 kmh 29.62 in1003.0 mb 0.00 in0.0 mm 0.00 in0.0 mm 0.07 in1.8 mm
07:34 PM 40.1°F4.5°C 36.6°F2.6°C 87% 3.8 mph 6.1 kmh 4.5 mph7.2 kmh 29.63 in1003.4 mb 0.00 in0.0 mm 0.00 in0.0 mm 0.07 in1.8 mm
07:36 PM 40.1°F4.5°C 36.6°F2.6°C 87% 3.8 mph NNE6.1 kmh NNE 5.4 mph8.7 kmh 29.63 in1003.4 mb 0.00 in0.0 mm 0.00 in0.0 mm 0.07 in1.8 mm
07:38 PM 39.9°F4.4°C 36.4°F2.4°C 87% 4.5 mph NE7.2 kmh NE 5.4 mph8.7 kmh 29.63 in1003.4 mb 0.00 in0.0 mm 0.00 in0.0 mm 0.07 in1.8 mm
07:40 PM 39.7°F4.3°C 36.2°F2.3°C 87% 3.8 mph NE6.1 kmh NE 4.5 mph7.2 kmh 29.63 in1003.4 mb 0.00 in0.0 mm 0.00 in0.0 mm 0.07 in1.8 mm
07:42 PM 39.7°F4.3°C 36.5°F2.5°C 88% 6.0 mph NE9.7 kmh NE 7.6 mph12.2 kmh 29.63 in1003.4 mb 0.00 in0.0 mm 0.00 in0.0 mm 0.07 in1.8 mm
07:44 PM 39.6°F4.2°C 36.3°F2.4°C 88% 6.0 mph NE9.7 kmh NE 6.9 mph11.1 kmh 29.63 in1003.4 mb 0.00 in0.0 mm 0.00 in0.0 mm 0.07 in1.8 mm
07:46 PM 39.6°F4.2°C 36.3°F2.4°C 88% 4.5 mph NE7.2 kmh NE 5.4 mph8.7 kmh 29.63 in1003.4 mb 0.00 in0.0 mm 0.00 in0.0 mm 0.07 in1.8 mm
07:48 PM 39.4°F4.1°C 36.1°F2.3°C 88% 4.5 mph NE7.2 kmh NE 5.4 mph8.7 kmh 29.63 in1003.4 mb 0.00 in0.0 mm 0.00 in0.0 mm 0.07 in1.8 mm
07:50 PM 39.4°F4.1°C 36.1°F2.3°C 88% 4.5 mph E7.2 kmh E 5.4 mph8.7 kmh 29.63 in1003.4 mb 0.00 in0.0 mm 0.00 in0.0 mm 0.07 in1.8 mm
07:52 PM 39.2°F4.0°C 36.0°F2.2°C 88% 3.8 mph NE6.1 kmh NE 4.5 mph7.2 kmh 29.63 in1003.4 mb 0.00 in0.0 mm 0.00 in0.0 mm 0.07 in1.8 mm
07:54 PM 39.2°F4.0°C 36.0°F2.2°C 88% 3.8 mph E6.1 kmh E 4.5 mph7.2 kmh 29.63 in1003.4 mb 0.00 in0.0 mm 0.00 in0.0 mm 0.07 in1.8 mm
07:56 PM 39.0°F3.9°C 35.8°F2.1°C 88% 3.1 mph E5.0 kmh E 3.8 mph6.1 kmh 29.63 in1003.4 mb 0.00 in0.0 mm 0.00 in0.0 mm 0.07 in1.8 mm
07:58 PM 38.8°F3.8°C 35.6°F2.0°C 88% 0.7 mph E1.1 kmh E 1.6 mph2.6 kmh 29.63 in1003.4 mb 0.00 in0.0 mm 0.00 in0.0 mm 0.07 in1.8 mm
08:00 PM 38.8°F3.8°C 35.6°F2.0°C 88% 0.7 mph E1.1 kmh E 1.6 mph2.6 kmh 29.63 in1003.4 mb 0.00 in0.0 mm 0.00 in0.0 mm 0.07 in1.8 mm
08:02 PM 38.8°F3.8°C 35.6°F2.0°C 88% 0.7 mph E1.1 kmh E 1.6 mph2.6 kmh 29.63 in1003.4 mb 0.00 in0.0 mm 0.00 in0.0 mm 0.07 in1.8 mm
08:04 PM 38.8°F3.8°C 35.6°F2.0°C 88% 0.7 mph E1.1 kmh E 1.6 mph2.6 kmh 29.63 in1003.4 mb 0.00 in0.0 mm 0.00 in0.0 mm 0.07 in1.8 mm
08:06 PM 38.3°F3.5°C 35.1°F1.7°C 88% Calm Calm -- 29.63 in1003.4 mb 0.00 in0.0 mm 0.00 in0.0 mm 0.07 in1.8 mm
08:08 PM 38.3°F3.5°C 34.8°F1.6°C 87% Calm Calm -- 29.63 in1003.4 mb 0.00 in0.0 mm 0.00 in0.0 mm 0.07 in1.8 mm
08:10 PM 38.3°F3.5°C 34.8°F1.6°C 87% Calm Calm 0.7 mph1.1 kmh 29.63 in1003.4 mb 0.00 in0.0 mm 0.00 in0.0 mm 0.07 in1.8 mm
08:12 PM 38.1°F3.4°C 34.6°F1.4°C 87% Calm Calm -- 29.62 in1003.0 mb 0.00 in0.0 mm 0.00 in0.0 mm 0.07 in1.8 mm
08:14 PM 37.9°F3.3°C 34.4°F1.3°C 87% Calm Calm -- 29.63 in1003.4 mb 0.00 in0.0 mm 0.00 in0.0 mm 0.07 in1.8 mm
08:16 PM 37.8°F3.2°C 34.3°F1.3°C 87% Calm Calm 0.7 mph1.1 kmh 29.63 in1003.4 mb 0.00 in0.0 mm 0.00 in0.0 mm 0.07 in1.8 mm
08:18 PM 37.6°F3.1°C 34.1°F1.2°C 87% Calm Calm 0.7 mph1.1 kmh 29.63 in1003.4 mb 0.00 in0.0 mm 0.00 in0.0 mm 0.07 in1.8 mm
08:20 PM 37.6°F3.1°C 34.1°F1.2°C 87% 0.7 mph NE1.1 kmh NE 1.6 mph2.6 kmh 29.63 in1003.4 mb 0.00 in0.0 mm 0.00 in0.0 mm 0.07 in1.8 mm
08:22 PM 37.4°F3.0°C 33.9°F1.1°C 87% Calm Calm -- 29.63 in1003.4 mb 0.00 in0.0 mm 0.00 in0.0 mm 0.07 in1.8 mm
08:24 PM 37.4°F3.0°C 33.9°F1.1°C 87% 0.7 mph E1.1 kmh E 1.6 mph2.6 kmh 29.63 in1003.4 mb 0.00 in0.0 mm 0.00 in0.0 mm 0.07 in1.8 mm
08:26 PM 37.2°F2.9°C 33.7°F0.9°C 87% 1.6 mph E2.6 kmh E 2.2 mph3.5 kmh 29.64 in1003.7 mb 0.00 in0.0 mm 0.00 in0.0 mm 0.07 in1.8 mm
08:28 PM 36.9°F2.7°C 33.4°F0.8°C 87% 2.2 mph E3.5 kmh E 3.1 mph5.0 kmh 29.63 in1003.4 mb 0.00 in0.0 mm 0.00 in0.0 mm 0.07 in1.8 mm
08:30 PM 36.7°F2.6°C 33.2°F0.7°C 87% 1.6 mph E2.6 kmh E 2.2 mph3.5 kmh 29.64 in1003.7 mb 0.00 in0.0 mm 0.00 in0.0 mm 0.07 in1.8 mm
08:32 PM 36.7°F2.6°C 33.2°F0.7°C 87% 1.6 mph E2.6 kmh E 2.2 mph3.5 kmh 29.63 in1003.4 mb 0.00 in0.0 mm 0.00 in0.0 mm 0.07 in1.8 mm
08:34 PM 36.5°F2.5°C 33.0°F0.6°C 87% 1.6 mph S2.6 kmh S 2.2 mph3.5 kmh 29.63 in1003.4 mb 0.00 in0.0 mm 0.00 in0.0 mm 0.07 in1.8 mm
08:36 PM 36.7°F2.6°C 33.2°F0.7°C 87% 0.7 mph S1.1 kmh S 0.7 mph1.1 kmh 29.64 in1003.7 mb 0.00 in0.0 mm 0.00 in0.0 mm 0.07 in1.8 mm
08:38 PM 36.7°F2.6°C 33.2°F0.7°C 87% 0.7 mph SSW1.1 kmh SSW 1.6 mph2.6 kmh 29.64 in1003.7 mb 0.00 in0.0 mm 0.00 in0.0 mm 0.07 in1.8 mm
08:40 PM 36.7°F2.6°C 33.2°F0.7°C 87% 0.7 mph SSW1.1 kmh SSW 0.7 mph1.1 kmh 29.63 in1003.4 mb 0.00 in0.0 mm 0.00 in0.0 mm 0.07 in1.8 mm
08:42 PM 36.5°F2.5°C 33.0°F0.6°C 87% 0.7 mph SSW1.1 kmh SSW 1.6 mph2.6 kmh 29.64 in1003.7 mb 0.00 in0.0 mm 0.00 in0.0 mm 0.07 in1.8 mm
08:44 PM 36.5°F2.5°C 33.0°F0.6°C 87% 0.7 mph S1.1 kmh S 1.6 mph2.6 kmh 29.65 in1004.1 mb 0.00 in0.0 mm 0.00 in0.0 mm 0.07 in1.8 mm
08:46 PM 36.5°F2.5°C 33.0°F0.6°C 87% Calm Calm 0.7 mph1.1 kmh 29.64 in1003.7 mb 0.00 in0.0 mm 0.00 in0.0 mm 0.07 in1.8 mm
08:48 PM 36.5°F2.5°C 33.0°F0.6°C 87% 1.6 mph SSW2.6 kmh SSW 2.2 mph3.5 kmh 29.64 in1003.7 mb 0.00 in0.0 mm 0.00 in0.0 mm 0.07 in1.8 mm
08:50 PM 36.5°F2.5°C 33.0°F0.6°C 87% 1.6 mph SSW2.6 kmh SSW 2.2 mph3.5 kmh 29.64 in1003.7 mb 0.00 in0.0 mm 0.00 in0.0 mm 0.07 in1.8 mm
08:52 PM 36.5°F2.5°C 33.0°F0.6°C 87% 2.2 mph S3.5 kmh S 3.1 mph5.0 kmh 29.65 in1004.1 mb 0.00 in0.0 mm 0.00 in0.0 mm 0.07 in1.8 mm
08:54 PM 36.3°F2.4°C 32.8°F0.4°C 87% 2.2 mph S3.5 kmh S 3.1 mph5.0 kmh 29.65 in1004.1 mb 0.00 in0.0 mm 0.00 in0.0 mm 0.07 in1.8 mm
08:56 PM 36.1°F2.3°C 32.7°F0.4°C 87% 1.6 mph SSW2.6 kmh SSW 2.2 mph3.5 kmh 29.65 in1004.1 mb 0.00 in0.0 mm 0.00 in0.0 mm 0.07 in1.8 mm
08:58 PM 36.1°F2.3°C 32.7°F0.4°C 87% 0.7 mph SSW1.1 kmh SSW 0.7 mph1.1 kmh 29.65 in1004.1 mb 0.00 in0.0 mm 0.00 in0.0 mm 0.07 in1.8 mm
09:00 PM 36.3°F2.4°C 32.8°F0.4°C 87% 0.7 mph SW1.1 kmh SW 1.6 mph2.6 kmh 29.65 in1004.1 mb 0.00 in0.0 mm 0.00 in0.0 mm 0.07 in1.8 mm
09:02 PM 36.3°F2.4°C 32.8°F0.4°C 87% 1.6 mph SW2.6 kmh SW 2.2 mph3.5 kmh 29.65 in1004.1 mb 0.00 in0.0 mm 0.00 in0.0 mm 0.07 in1.8 mm
09:04 PM 36.3°F2.4°C 32.8°F0.4°C 87% 2.2 mph NW3.5 kmh NW 3.1 mph5.0 kmh 29.65 in1004.1 mb 0.00 in0.0 mm 0.00 in0.0 mm 0.07 in1.8 mm
09:06 PM 36.3°F2.4°C 32.8°F0.4°C 87% 0.7 mph NW1.1 kmh NW 1.6 mph2.6 kmh 29.65 in1004.1 mb 0.00 in0.0 mm 0.00 in0.0 mm 0.07 in1.8 mm
09:08 PM 36.3°F2.4°C 32.8°F0.4°C 87% 0.7 mph NW1.1 kmh NW 0.7 mph1.1 kmh 29.65 in1004.1 mb 0.00 in0.0 mm 0.00 in0.0 mm 0.07 in1.8 mm
09:10 PM 36.3°F2.4°C 32.8°F0.4°C 87% Calm Calm 0.7 mph1.1 kmh 29.65 in1004.1 mb 0.00 in0.0 mm 0.00 in0.0 mm 0.07 in1.8 mm
09:12 PM 36.3°F2.4°C 32.8°F0.4°C 87% 0.7 mph NW1.1 kmh NW 1.6 mph2.6 kmh 29.65 in1004.1 mb 0.00 in0.0 mm 0.00 in0.0 mm 0.07 in1.8 mm
09:14 PM 36.1°F2.3°C 32.7°F0.4°C 87% Calm Calm 0.7 mph1.1 kmh 29.65 in1004.1 mb 0.00 in0.0 mm 0.00 in0.0 mm 0.07 in1.8 mm
09:16 PM 36.1°F2.3°C 32.7°F0.4°C 87% 1.6 mph NW2.6 kmh NW 1.6 mph2.6 kmh 29.65 in1004.1 mb 0.00 in0.0 mm 0.00 in0.0 mm 0.07 in1.8 mm
09:18 PM 35.8°F2.1°C 32.3°F0.2°C 87% 0.7 mph NW1.1 kmh NW 1.6 mph2.6 kmh 29.66 in1004.4 mb 0.00 in0.0 mm 0.00 in0.0 mm 0.07 in1.8 mm
09:20 PM 35.8°F2.1°C 32.3°F0.2°C 87% Calm Calm 0.7 mph1.1 kmh 29.66 in1004.4 mb 0.00 in0.0 mm 0.00 in0.0 mm 0.07 in1.8 mm
09:22 PM 35.6°F2.0°C 32.1°F0.1°C 87% 1.6 mph NW2.6 kmh NW 2.2 mph3.5 kmh 29.66 in1004.4 mb 0.00 in0.0 mm 0.00 in0.0 mm 0.07 in1.8 mm
09:24 PM 35.4°F1.9°C 31.9°F-0.1°C 87% 2.2 mph NW3.5 kmh NW 3.1 mph5.0 kmh 29.66 in1004.4 mb 0.00 in0.0 mm 0.00 in0.0 mm 0.07 in1.8 mm
09:26 PM 35.6°F2.0°C 32.1°F0.1°C 87% 1.6 mph NW2.6 kmh NW 2.2 mph3.5 kmh 29.65 in1004.1 mb 0.00 in0.0 mm 0.00 in0.0 mm 0.07 in1.8 mm
09:28 PM 35.6°F2.0°C 32.1°F0.1°C 87% 1.6 mph NW2.6 kmh NW 2.2 mph3.5 kmh 29.66 in1004.4 mb 0.00 in0.0 mm 0.00 in0.0 mm 0.07 in1.8 mm
09:30 PM 35.6°F2.0°C 32.1°F0.1°C 87% 1.6 mph NW2.6 kmh NW 2.2 mph3.5 kmh 29.66 in1004.4 mb 0.00 in0.0 mm 0.00 in0.0 mm 0.07 in1.8 mm
09:32 PM 35.6°F2.0°C 32.4°F0.2°C 88% 1.6 mph NW2.6 kmh NW 2.2 mph3.5 kmh 29.66 in1004.4 mb 0.00 in0.0 mm 0.00 in0.0 mm 0.07 in1.8 mm
09:34 PM 35.4°F1.9°C 32.2°F0.1°C 88% 0.7 mph NW1.1 kmh NW 1.6 mph2.6 kmh 29.67 in1004.7 mb 0.00 in0.0 mm 0.00 in0.0 mm 0.07 in1.8 mm
09:36 PM 35.4°F1.9°C 32.2°F0.1°C 88% 0.7 mph NW1.1 kmh NW 1.6 mph2.6 kmh 29.66 in1004.4 mb 0.00 in0.0 mm 0.00 in0.0 mm 0.07 in1.8 mm
09:38 PM 35.2°F1.8°C 32.1°F0.1°C 88% 0.7 mph NW1.1 kmh NW 1.6 mph2.6 kmh 29.67 in1004.7 mb 0.00 in0.0 mm 0.00 in0.0 mm 0.07 in1.8 mm
09:40 PM 35.2°F1.8°C 32.1°F0.1°C 88% 0.7 mph NW1.1 kmh NW 1.6 mph2.6 kmh 29.67 in1004.7 mb 0.00 in0.0 mm 0.00 in0.0 mm 0.07 in1.8 mm
09:42 PM 35.2°F1.8°C 32.1°F0.1°C 88% 0.7 mph NW1.1 kmh NW 1.6 mph2.6 kmh 29.66 in1004.4 mb 0.00 in0.0 mm 0.00 in0.0 mm 0.07 in1.8 mm
09:44 PM 35.2°F1.8°C 32.1°F0.1°C 88% 0.7 mph NW1.1 kmh NW 1.6 mph2.6 kmh 29.67 in1004.7 mb 0.00 in0.0 mm 0.00 in0.0 mm 0.07 in1.8 mm
09:46 PM 35.1°F1.7°C 31.9°F-0.1°C 88% 0.7 mph NW1.1 kmh NW 1.6 mph2.6 kmh 29.67 in1004.7 mb 0.00 in0.0 mm 0.00 in0.0 mm 0.07 in1.8 mm
09:48 PM 35.1°F1.7°C 31.9°F-0.1°C 88% 0.7 mph NW1.1 kmh NW 1.6 mph2.6 kmh 29.67 in1004.7 mb 0.00 in0.0 mm 0.00 in0.0 mm 0.07 in1.8 mm
09:50 PM 34.9°F1.6°C 31.7°F-0.2°C 88% 1.6 mph W2.6 kmh W 2.2 mph3.5 kmh 29.67 in1004.7 mb 0.00 in0.0 mm 0.00 in0.0 mm 0.07 in1.8 mm
09:52 PM 34.9°F1.6°C 31.7°F-0.2°C 88% 0.7 mph W1.1 kmh W 1.6 mph2.6 kmh 29.67 in1004.7 mb 0.00 in0.0 mm 0.00 in0.0 mm 0.07 in1.8 mm
09:55 PM 34.7°F1.5°C 31.5°F-0.3°C 88% Calm Calm 0.7 mph1.1 kmh 29.67 in1004.7 mb 0.00 in0.0 mm 0.00 in0.0 mm 0.07 in1.8 mm
09:57 PM 34.7°F1.5°C 31.5°F-0.3°C 88% Calm Calm 0.7 mph1.1 kmh 29.67 in1004.7 mb 0.00 in0.0 mm 0.00 in0.0 mm 0.07 in1.8 mm
09:59 PM 34.5°F1.4°C 31.3°F-0.4°C 88% 0.7 mph W1.1 kmh W 0.7 mph1.1 kmh 29.67 in1004.7 mb 0.00 in0.0 mm 0.00 in0.0 mm 0.07 in1.8 mm
10:01 PM 34.5°F1.4°C 31.3°F-0.4°C 88% 0.7 mph W1.1 kmh W 1.6 mph2.6 kmh 29.67 in1004.7 mb 0.00 in0.0 mm 0.00 in0.0 mm 0.07 in1.8 mm
10:03 PM 34.5°F1.4°C 31.3°F-0.4°C 88% 0.7 mph W1.1 kmh W 1.6 mph2.6 kmh 29.67 in1004.7 mb 0.00 in0.0 mm 0.00 in0.0 mm 0.07 in1.8 mm
10:05 PM 34.5°F1.4°C 31.3°F-0.4°C 88% 0.7 mph W1.1 kmh W 1.6 mph2.6 kmh 29.67 in1004.7 mb 0.00 in0.0 mm 0.00 in0.0 mm 0.07 in1.8 mm
10:07 PM 34.5°F1.4°C 31.3°F-0.4°C 88% 0.7 mph W1.1 kmh W 1.6 mph2.6 kmh 29.67 in1004.7 mb 0.00 in0.0 mm 0.00 in0.0 mm 0.07 in1.8 mm
10:09 PM 34.2°F1.2°C 31.0°F-0.6°C 88% Calm Calm -- 29.67 in1004.7 mb 0.00 in0.0 mm 0.00 in0.0 mm 0.07 in1.8 mm
10:11 PM 34.2°F1.2°C 31.0°F-0.6°C 88% Calm Calm -- 29.67 in1004.7 mb 0.00 in0.0 mm 0.00 in0.0 mm 0.07 in1.8 mm
10:13 PM 34.0°F1.1°C 30.8°F-0.7°C 88% 0.7 mph W1.1 kmh W 1.6 mph2.6 kmh 29.68 in1005.1 mb 0.00 in0.0 mm 0.00 in0.0 mm 0.07 in1.8 mm
10:15 PM 34.0°F1.1°C 30.8°F-0.7°C 88% 0.7 mph W1.1 kmh W 1.6 mph2.6 kmh 29.68 in1005.1 mb 0.00 in0.0 mm 0.00 in0.0 mm 0.07 in1.8 mm
10:17 PM 33.6°F0.9°C 30.2°F-1.0°C 87% 0.7 mph W1.1 kmh W 1.6 mph2.6 kmh 29.67 in1004.7 mb 0.00 in0.0 mm 0.00 in0.0 mm 0.07 in1.8 mm
10:19 PM 33.4°F0.8°C 30.0°F-1.1°C 87% Calm Calm 0.7 mph1.1 kmh 29.68 in1005.1 mb 0.00 in0.0 mm 0.00 in0.0 mm 0.07 in1.8 mm
10:21 PM 33.3°F0.7°C 29.8°F-1.2°C 87% Calm Calm 0.7 mph1.1 kmh 29.68 in1005.1 mb 0.00 in0.0 mm 0.00 in0.0 mm 0.07 in1.8 mm
10:23 PM 33.1°F0.6°C 29.6°F-1.3°C 87% 0.7 mph W1.1 kmh W 1.6 mph2.6 kmh 29.68 in1005.1 mb 0.00 in0.0 mm 0.00 in0.0 mm 0.07 in1.8 mm
10:25 PM 32.9°F0.5°C 29.5°F-1.4°C 87% 0.7 mph W1.1 kmh W 1.6 mph2.6 kmh 29.68 in1005.1 mb 0.00 in0.0 mm 0.00 in0.0 mm 0.07 in1.8 mm
10:27 PM 32.7°F0.4°C 29.3°F-1.5°C 87% 2.2 mph SW3.5 kmh SW 3.1 mph5.0 kmh 29.68 in1005.1 mb 0.00 in0.0 mm 0.00 in0.0 mm 0.07 in1.8 mm
10:29 PM 32.7°F0.4°C 29.3°F-1.5°C 87% 1.6 mph SW2.6 kmh SW 2.2 mph3.5 kmh 29.68 in1005.1 mb 0.00 in0.0 mm 0.00 in0.0 mm 0.07 in1.8 mm
10:31 PM 32.7°F0.4°C 29.3°F-1.5°C 87% 0.7 mph SW1.1 kmh SW 1.6 mph2.6 kmh 29.68 in1005.1 mb 0.00 in0.0 mm 0.00 in0.0 mm 0.07 in1.8 mm
10:33 PM 32.9°F0.5°C 29.5°F-1.4°C 87% 0.7 mph SW1.1 kmh SW 1.6 mph2.6 kmh 29.69 in1005.4 mb 0.00 in0.0 mm 0.00 in0.0 mm 0.07 in1.8 mm
10:35 PM 33.4°F0.8°C 30.3°F-0.9°C 88% Calm Calm 0.7 mph1.1 kmh 29.69 in1005.4 mb 0.00 in0.0 mm 0.00 in0.0 mm 0.07 in1.8 mm
10:37 PM 33.8°F1.0°C 30.6°F-0.8°C 88% Calm Calm -- 29.68 in1005.1 mb 0.00 in0.0 mm 0.00 in0.0 mm 0.07 in1.8 mm
10:39 PM 34.0°F1.1°C 30.8°F-0.7°C 88% 0.7 mph SW1.1 kmh SW 1.6 mph2.6 kmh 29.69 in1005.4 mb 0.00 in0.0 mm 0.00 in0.0 mm 0.07 in1.8 mm
10:41 PM 34.0°F1.1°C 30.8°F-0.7°C 88% 1.6 mph SW2.6 kmh SW 2.2 mph3.5 kmh 29.69 in1005.4 mb 0.00 in0.0 mm 0.00 in0.0 mm 0.07 in1.8 mm
10:43 PM 34.0°F1.1°C 30.8°F-0.7°C 88% 1.6 mph SW2.6 kmh SW 2.2 mph3.5 kmh 29.69 in1005.4 mb 0.00 in0.0 mm 0.00 in0.0 mm 0.07 in1.8 mm
10:45 PM 34.0°F1.1°C 30.8°F-0.7°C 88% 0.7 mph SW1.1 kmh SW 1.6 mph2.6 kmh 29.69 in1005.4 mb 0.00 in0.0 mm 0.00 in0.0 mm 0.07 in1.8 mm
10:47 PM 34.2°F1.2°C 31.0°F-0.6°C 88% 1.6 mph SW2.6 kmh SW 2.2 mph3.5 kmh 29.68 in1005.1 mb 0.00 in0.0 mm 0.00 in0.0 mm 0.07 in1.8 mm
10:49 PM 34.2°F1.2°C 31.0°F-0.6°C 88% 2.2 mph SW3.5 kmh SW 3.1 mph5.0 kmh 29.69 in1005.4 mb 0.00 in0.0 mm 0.00 in0.0 mm 0.07 in1.8 mm
10:51 PM 34.2°F1.2°C 31.0°F-0.6°C 88% 1.6 mph SW2.6 kmh SW 2.2 mph3.5 kmh 29.69 in1005.4 mb 0.00 in0.0 mm 0.00 in0.0 mm 0.07 in1.8 mm
10:53 PM 34.2°F1.2°C 31.0°F-0.6°C 88% 1.6 mph SW2.6 kmh SW 2.2 mph3.5 kmh 29.68 in1005.1 mb 0.00 in0.0 mm 0.00 in0.0 mm 0.07 in1.8 mm
10:55 PM 34.2°F1.2°C 31.0°F-0.6°C 88% 1.6 mph SW2.6 kmh SW 1.6 mph2.6 kmh 29.69 in1005.4 mb 0.00 in0.0 mm 0.00 in0.0 mm 0.07 in1.8 mm
10:57 PM 34.5°F1.4°C 31.3°F-0.4°C 88% Calm Calm 0.7 mph1.1 kmh 29.69 in1005.4 mb 0.00 in0.0 mm 0.00 in0.0 mm 0.07 in1.8 mm
10:59 PM 34.7°F1.5°C 31.8°F-0.1°C 89% Calm Calm -- 29.69 in1005.4 mb 0.00 in0.0 mm 0.00 in0.0 mm 0.07 in1.8 mm
11:01 PM 34.9°F1.6°C 32.0°F0.0°C 89% Calm Calm -- 29.69 in1005.4 mb 0.00 in0.0 mm 0.00 in0.0 mm 0.07 in1.8 mm
11:03 PM 34.9°F1.6°C 32.0°F0.0°C 89% Calm Calm -- 29.69 in1005.4 mb 0.00 in0.0 mm 0.00 in0.0 mm 0.07 in1.8 mm
11:05 PM 35.1°F1.7°C 32.2°F0.1°C 89% 0.7 mph SW1.1 kmh SW 1.6 mph2.6 kmh 29.69 in1005.4 mb 0.00 in0.0 mm 0.00 in0.0 mm 0.07 in1.8 mm
11:07 PM 35.2°F1.8°C 32.3°F0.2°C 89% Calm Calm 0.7 mph1.1 kmh 29.68 in1005.1 mb 0.00 in0.0 mm 0.00 in0.0 mm 0.07 in1.8 mm
11:09 PM 35.4°F1.9°C 32.5°F0.3°C 89% 0.7 mph SW1.1 kmh SW 0.7 mph1.1 kmh 29.69 in1005.4 mb 0.00 in0.0 mm 0.00 in0.0 mm 0.07 in1.8 mm
11:11 PM 35.4°F1.9°C 32.5°F0.3°C 89% Calm Calm -- 29.69 in1005.4 mb 0.00 in0.0 mm 0.00 in0.0 mm 0.07 in1.8 mm
11:13 PM 35.4°F1.9°C 32.5°F0.3°C 89% Calm Calm 0.7 mph1.1 kmh 29.69 in1005.4 mb 0.00 in0.0 mm 0.00 in0.0 mm 0.07 in1.8 mm
11:15 PM 35.2°F1.8°C 32.3°F0.2°C 89% 0.7 mph SW1.1 kmh SW 1.6 mph2.6 kmh 29.69 in1005.4 mb 0.00 in0.0 mm 0.00 in0.0 mm 0.07 in1.8 mm
11:17 PM 35.2°F1.8°C 32.3°F0.2°C 89% 0.7 mph SW1.1 kmh SW 1.6 mph2.6 kmh 29.68 in1005.1 mb 0.00 in0.0 mm 0.00 in0.0 mm 0.07 in1.8 mm
11:19 PM 35.1°F1.7°C 32.2°F0.1°C 89% 0.7 mph SW1.1 kmh SW 1.6 mph2.6 kmh 29.69 in1005.4 mb 0.00 in0.0 mm 0.00 in0.0 mm 0.07 in1.8 mm
11:21 PM 35.1°F1.7°C 32.2°F0.1°C 89% 0.7 mph SW1.1 kmh SW 1.6 mph2.6 kmh 29.68 in1005.1 mb 0.00 in0.0 mm 0.00 in0.0 mm 0.07 in1.8 mm
11:23 PM 34.9°F1.6°C 32.0°F0.0°C 89% Calm Calm 0.7 mph1.1 kmh 29.69 in1005.4 mb 0.00 in0.0 mm 0.00 in0.0 mm 0.07 in1.8 mm
11:25 PM 34.9°F1.6°C 32.0°F0.0°C 89% Calm Calm -- 29.69 in1005.4 mb 0.00 in0.0 mm 0.00 in0.0 mm 0.07 in1.8 mm
11:27 PM 34.7°F1.5°C 31.8°F-0.1°C 89% 0.7 mph SW1.1 kmh SW 1.6 mph2.6 kmh 29.70 in1005.8 mb 0.00 in0.0 mm 0.00 in0.0 mm 0.07 in1.8 mm
11:29 PM 34.5°F1.4°C 31.6°F-0.2°C 89% 0.7 mph SW1.1 kmh SW 1.6 mph2.6 kmh 29.69 in1005.4 mb 0.00 in0.0 mm 0.00 in0.0 mm 0.07 in1.8 mm
11:31 PM 34.3°F1.3°C 31.4°F-0.3°C 89% 1.6 mph SW2.6 kmh SW 2.2 mph3.5 kmh 29.70 in1005.8 mb 0.00 in0.0 mm 0.00 in0.0 mm 0.07 in1.8 mm
11:33 PM 34.2°F1.2°C 31.3°F-0.4°C 89% 1.6 mph SW2.6 kmh SW 2.2 mph3.5 kmh 29.70 in1005.8 mb 0.00 in0.0 mm 0.00 in0.0 mm 0.07 in1.8 mm
11:35 PM 34.2°F1.2°C 31.3°F-0.4°C 89% 0.7 mph SW1.1 kmh SW 0.7 mph1.1 kmh 29.70 in1005.8 mb 0.00 in0.0 mm 0.00 in0.0 mm 0.07 in1.8 mm
11:37 PM 34.2°F1.2°C 31.3°F-0.4°C 89% Calm Calm 0.7 mph1.1 kmh 29.70 in1005.8 mb 0.00 in0.0 mm 0.00 in0.0 mm 0.07 in1.8 mm
11:39 PM 34.5°F1.4°C 31.6°F-0.2°C 89% Calm Calm 0.7 mph1.1 kmh 29.69 in1005.4 mb 0.00 in0.0 mm 0.00 in0.0 mm 0.07 in1.8 mm
11:41 PM 34.5°F1.4°C 31.6°F-0.2°C 89% Calm Calm -- 29.70 in1005.8 mb 0.00 in0.0 mm 0.00 in0.0 mm 0.07 in1.8 mm
11:43 PM 34.7°F1.5°C 31.8°F-0.1°C 89% Calm Calm -- 29.69 in1005.4 mb 0.00 in0.0 mm 0.00 in0.0 mm 0.07 in1.8 mm
11:45 PM 34.7°F1.5°C 31.8°F-0.1°C 89% 1.6 mph SW2.6 kmh SW 2.2 mph3.5 kmh 29.70 in1005.8 mb 0.00 in0.0 mm 0.00 in0.0 mm 0.07 in1.8 mm
11:47 PM 34.7°F1.5°C 31.8°F-0.1°C 89% 0.7 mph SW1.1 kmh SW 1.6 mph2.6 kmh 29.69 in1005.4 mb 0.00 in0.0 mm 0.00 in0.0 mm 0.07 in1.8 mm
11:49 PM 34.7°F1.5°C 31.8°F-0.1°C 89% Calm Calm 0.7 mph1.1 kmh 29.70 in1005.8 mb 0.00 in0.0 mm 0.00 in0.0 mm 0.07 in1.8 mm
11:51 PM 34.9°F1.6°C 32.0°F0.0°C 89% 0.7 mph SW1.1 kmh SW 1.6 mph2.6 kmh 29.70 in1005.8 mb 0.00 in0.0 mm 0.00 in0.0 mm 0.07 in1.8 mm
11:53 PM 35.1°F1.7°C 32.2°F0.1°C 89% 0.7 mph SW1.1 kmh SW 0.7 mph1.1 kmh 29.69 in1005.4 mb 0.00 in0.0 mm 0.00 in0.0 mm 0.07 in1.8 mm
11:55 PM 35.1°F1.7°C 32.2°F0.1°C 89% 1.6 mph SW2.6 kmh SW 1.6 mph2.6 kmh 29.70 in1005.8 mb 0.00 in0.0 mm 0.00 in0.0 mm 0.07 in1.8 mm
11:57 PM 35.1°F1.7°C 32.2°F0.1°C 89% 2.2 mph SW3.5 kmh SW 2.2 mph3.5 kmh 29.70 in1005.8 mb 0.00 in0.0 mm 0.00 in0.0 mm 0.07 in1.8 mm
11:59 PM 35.1°F1.7°C 32.2°F0.1°C 89% 0.7 mph SW1.1 kmh SW 1.6 mph2.6 kmh 29.70 in1005.8 mb 0.00 in0.0 mm 0.00 in0.0 mm 0.07 in1.8 mm